Classifica Olimpico – Maschile

Classifica Olimpico – Maschile
POSIZIONEPETTORALECOGNOMENOMEANNOCATEGORIANOME TEAMTEMPOORA ARRIVODISTACCO
13PESAVENTOFRANCO1997S1TRIATHLON 7C ASD01:53:5416:04:07.6000:00:00
21KUROCHKINSERGIY1988S2GRANBIKE TRIATHLON01:53:5716:04:10.1000:00:03
32SALINIGABRIELE1982S470701:54:4916:05:02.3000:00:55
48BUTTURINIJACOPO1991S2TRIATHLON CREMONA ST01:55:2116:05:34.9000:01:28
5825MICOTTISTEFANO1997S1AZZURRA TRIATHLON TE01:56:2416:06:37.1500:02:30
632MORELLIMATTEO1994S1CUS PARMA ASD01:57:5216:08:06.0500:03:59
7824SPINAZZE'FEDERICO1998JUSILCA ULTRALITE01:58:0316:08:16.5500:04:09
816INTAGLIATASTEFANO1987S3PPRTEAM01:58:1316:08:26.6000:04:19
911TERRANOVAALESSANDRO1985S3DERMOVITAMINA B) SID01:58:2416:08:37.7000:04:31
1015VILLANOVASIMONE1993S1PROPATRIA MILANO01:59:3016:09:43.3500:05:36
11829ZENTILUCA1994S1T'N'T SSD01:59:3916:09:52.5000:05:45
1222DAVIDECHRISTIAN1997S1THE HURRICANE S.S.D.02:00:5516:11:09.0500:07:02
136CIOTTIEMANUELE1980S4THE HURRICANE S.S.D.02:01:0416:11:18.0000:07:11
1423RAINOLTERANDREA1994S1POOL CANTU' 1999 A.S02:01:1516:11:29.0500:07:22
15851LOIDAVIDE1987S370702:01:5516:20:04.1500:08:01
16823PAGOTTOFEDERICO1998JUSILCA ULTRALITE02:01:5716:12:11.0000:08:04
1717PITTALUGAMATTEO1985S3FORHANS TEAM02:02:0316:12:16.5000:08:09
1813PIRANILUCA1997S1THE HURRICANE S.S.D.02:02:0616:12:19.4000:08:12
1912PASTOREENRICO1979S4DESENZANO TRIATHLON02:02:0716:12:20.6000:08:13
2034MANTOLINISIMONE1982S4THE HURRICANE S.S.D.02:02:4816:13:01.4000:08:54
2120DI SILVIOPIETRO FELICE1994S1THE HURRICANE S.S.D.02:02:4816:13:01.5000:08:54
2210MARCHETTIETTORE1987S3THE HURRICANE S.S.D.02:02:4816:13:01.5000:08:54
2340GARAVAGLIAMARCO1981S4A.S. AUTONOSATE02:02:5516:13:08.5500:09:01
2425FINAZZIGIUSEPPE1982S470702:03:0816:13:21.1000:09:14
2541BOTTURAORAZIO1970M2MMTT02:03:0916:13:22.4500:09:15
2631ZONTINIMATTIA1990S2RASCHIANI TRI PAVESE02:03:2816:13:41.8500:09:35
277TORODANIELE1997S1THE HURRICANE S.S.D.02:03:4116:13:54.1000:09:47
2856ALBINIACHILLE1970M2RHO TRIATHLON CLUB02:03:5516:14:08.7000:10:02
2948BERANGERALESSANDRO1992S2DDS02:04:0216:14:15.9000:10:09
3043PAVANIMARCO1995S1VERONA TRIATHLON02:04:0816:14:21.5500:10:14
3126GOMIERODAVIDE1989S2G.P. TRIATHLON02:04:0916:14:22.7500:10:16
32160TRABUCCHIALEX1999JUESTERO02:04:3916:14:52.6000:10:45
3330MERAZZIGIANLUCA1993S1A302:04:5016:15:03.9500:10:57
3449GATTIMARCO1985S3OTRI 1 COMO02:04:5616:15:10.0500:11:03
3561WOLFARTERIK1970M2OXYGEN TRIATHLON02:04:5916:15:12.9000:11:06
369FRACCAROBERTO1987S3DESENZANO TRIATHLON02:05:0216:15:15.9000:11:09
3724LUCACCIONIEMANUELE1978S4PERUGIA TRIATHLON02:05:1216:15:25.8500:11:19
381021BORGIALLIALESSANDRO1973M1BASE RUNNING TRIATHL02:05:2216:25:29.3500:11:28
3975MAZZOLENIDAVIDE1975M1STEEL T - BG02:05:4416:15:57.7000:11:51
40103CROSTASTEFANO1968M2RHO TRIATHLON CLUB02:05:5016:16:03.5000:11:56
4158GALLARATOIORDACHE1983S3BASE RUNNING TRIATHL02:05:5216:16:05.1000:11:58
4237RENZILUCA1981S4T.D. RIMINI02:05:5916:16:12.2000:12:05
4329FERRARIMASSIMO1967M3FERALPI TRIATHLON02:06:0016:16:14.0000:12:07
4442SCHIAPPARELLIMARCO1977M1IRONBIELLA02:06:0716:16:20.5500:12:13
4568DALE'PAOLO1985S3EUROPA SSD02:06:0916:16:22.6000:12:15
4685CONZATTIALESSANDRO1989S2DOLOMITICA NUOTO CTT02:06:1116:16:24.4500:12:17
4762HERNISGIUSEPPE1988S2A.S. AUTONOSATE02:06:1316:16:26.1000:12:19
4827LAVELLIMASSIMO1975M1FREEZONE02:06:1616:16:29.6000:12:22
4945SERRATOREANTONIO1991S270702:06:2016:16:34.0000:12:27
50858MORANIDAVIDE1986S3AZZURRA TRIATHLON TE02:06:2216:24:31.8500:12:29
5163BOVOLENTAALESSANDRO1966M3TRI NOVARA02:06:2516:16:38.8500:12:32
5272EKOLIVIER1984S3CUS PADOVA A.S.D.02:06:4116:16:54.4000:12:47
5314GATTAVECCHIACARLO1979S4POOL CANTU' 1999 A.S02:06:4516:16:58.2500:12:51
5436VIANELLOMICHELE1982S4PADOVA TRIATHLON02:07:0116:17:14.7000:13:08
5555MARINIMASSIMILIANO1982S4FREEZONE02:07:0616:17:19.3000:13:12
5618BERARDINILUCA1981S4FERALPI TRIATHLON02:07:1816:17:31.3000:13:24
5733BARNABYSIMON JAMENS1986S370702:07:2316:17:36.1500:13:29
58143VOLPINICOLA1986S3EUROPA SSD02:07:2416:17:38.0000:13:31
5928GAZZARIDIEGO1967M3T.D. RIMINI02:07:4716:18:01.0500:13:54
6059ATTALAANDREA1981S4FIRENZE TRI02:07:5916:18:12.5000:14:05
6135FOPPOLOPIETRO1992S2STEEL T - BG02:08:0216:18:15.3500:14:08
62105SPERANDIOCHRISTIAN1979S4TRI ALTO ADIGE02:08:0316:18:16.9500:14:10
6379BELLEMOMICHELE1973M1A.S. DELFINO CHIOGGI02:08:1716:18:30.1000:14:23
64975SALVATERRAILARIO1975M1S.S.D. SCHIANTARELLI02:08:1816:28:25.7500:14:25
6551RAVELLIMARCO1979S4FERALPI TRIATHLON02:08:2416:18:37.6500:14:30
6677SIMIONATOSTEFANO1972M2ASI TRIATHLON NOALE02:08:2516:18:38.3500:14:31
67845OSSOENRICO1989S2CSA GORIZIA02:08:2616:26:35.4500:14:32
681052MORUZZIMASSIMO1971M2MODENA TRIATHLON02:08:2716:28:34.1000:14:33
69158BERGAMOPETER1982S4VALTELLINA TRIATHLON02:08:4116:18:54.6500:14:47
7086ROSSIGABRIELE1973M1A.S.D. SESSANTALLORA02:08:4216:18:55.4000:14:48
711031BERTONCELLOFABIAN1972M2MAS TRIATHLON02:08:5916:29:06.7000:15:06
72121BORGHESIFABIO1984S3FREEZONE02:09:0316:19:17.0500:15:10
7321GIACOMELLIFABIO1981S4FREEZONE02:09:0716:19:20.1000:15:13
7447FOGLIALUCA1994S1APD ANDREANA SACRA F02:09:0716:19:20.7000:15:14
75115PASINICESARE1970M2FERALPI TRIATHLON02:09:1016:19:23.7500:15:17
7667PROIETTI PLACIDIRAFFAELE1975M1A.S.D. FOLIGNO TRIAT02:09:1516:19:28.9000:15:22
7773RIVELLINISIMONE1995S1STEEL T - BG02:09:1616:19:29.5000:15:22
78157GALLARATODAVID1977M1A.S.D. TORINO TRIATH02:09:1616:19:29.6000:15:22
7989ONGARONICOLA1985S3TEAM BIKE GUSSAGO AS02:09:1916:19:32.8500:15:26
80108MAZZEIGIOVANNI1985S33 LIFE02:09:2116:19:34.2500:15:27
81107BONETTIEMILIANO1978S4GALILEO TRIATHLON02:09:2516:19:38.6000:15:31
8274MACCHICHRISTIAN1972M2BUSTO ARSIZIO A.R.C.02:09:3116:19:44.4500:15:37
83169LUPPIMATTIA1976M1PROGETTO VISTA TRIAT02:09:3416:21:45.1000:15:40
8493SANDRINISIMONE1988S2S.S.D. SCHIANTARELLI02:09:4116:19:54.9500:15:48
851012PIOVESANIGOR1974M1SPORT 6402:09:4216:29:49.4500:15:48
86102COPPINILUCA1980S4PESCHIERA TRI02:09:4416:19:57.3000:15:50
8752MANFRINILUIGI1979S4TRIBO02:09:4616:19:59.9000:15:53
881101CICIGOIMARCO1967M3CSA GORIZIA02:09:5216:30:00.0500:15:59
8992MELLONIALESSANDRO1981S4TRILAKE02:10:0316:20:16.2000:16:09
90128BIMBATTIMATTEO1973M1PROGETTO VISTA TRIAT02:10:0816:20:21.3500:16:14
9199BATTAINIFRANCO1972M2K3 CREMONA02:10:1216:20:25.2000:16:18
9271AGNELLOEMILIANO1973M1RASCHIANI TRI PAVESE02:10:1516:20:28.1500:16:21
93180VECCHIATTIGIAN LUIGI1975M1A.S.D. RHODIGIUM TEA02:10:2916:22:40.2000:16:35
94111CORDIBELLASTEFANO1981S4VERONA TRIATHLON02:10:3116:20:44.7500:16:38
95147LEONIFILIPPO1989S2RASCHIANI TRI PAVESE02:10:3816:20:51.8500:16:45
96170SINNDANIEL1982S4KSV TRIATHLON02:10:3816:22:49.9000:16:45
9791BOMBARDELLIPATRICK1983S3DOLOMITICA NUOTO CTT02:10:4116:20:55.0000:16:48
98109BORTOLAMIGIACOMO1987S3PADOVA TRIATHLON02:10:4716:21:00.8000:16:54
99112ANESASTEFANO1965M370702:10:5016:21:03.8000:16:57
100136BARUZZIANDREA1981S4T. T. RAVENNA02:10:5316:21:06.4000:16:59
101116GIOVAGNOLIGIANPAOLO1973M1POL. RICCIONE02:10:5516:21:08.4000:17:01
102838BERTONCELLORICCARDO1991S2MAS TRIATHLON02:10:5716:29:06.9000:17:04
10369SOMMARUGAGIOVANNI1982S4TRIATHLON CREMONA ST02:11:0416:21:17.7500:17:11
10470SICHETTILORENZO1977M1THE HURRICANE S.S.D.02:11:0516:21:18.6500:17:11
105859SICURAFEDERICO1985S3ZEROTRENTA TRIATHLON02:11:0916:11:18.9000:17:16
10694TURATIGIANPAOLO1974M1ASD NPV02:11:1016:21:23.8000:17:17
107984GIORGINILUCA1975M1TRI TEAM BRIANZA02:11:1116:31:18.1000:17:17
108153SPINATONICOLA1994S1EROI DEL PIAVE02:11:1216:21:25.6000:17:18
109100CURTARELLOSTEFANO1976M1PESCHIERA TRI02:11:1216:21:25.7000:17:19
110832MORIFRANCESCO1993S1EUROPA SSD02:11:1216:29:21.8500:17:19
111945SINIANDREA1977M1FERALPI TRIATHLON02:11:1416:29:23.5500:17:20
11264TAMBURIELLOPAOLO1967M3DDS02:11:1716:21:30.1500:17:23
11390CERNICCHIALESSANDRO1980S4TRI.RN.MAROSTICA02:11:1716:21:30.7500:17:24
114151FONTANADIEGO1995S1A302:11:2416:21:37.1500:17:30
11584DI GHIONNOPASQUALE1983S3THE HURRICANE S.S.D.02:11:2516:21:38.9500:17:32
11646LOVATISTEFANO MARIO1987S3A.S. AUTONOSATE02:11:2716:21:40.5500:17:33
117842UDAMICHAEL1990S2AZZURRA TRIATHLON TE02:11:3016:29:39.9000:17:37
11839GASPARINICHRISTIAN1990S2TRAGUARDO VOLANTE02:11:3416:21:47.3000:17:40
11960ZANGHERIALESSANDRO1980S4T.D. RIMINI02:11:3616:21:49.3000:17:42
120182MERAZZIOMAR1998JUA TEAM02:11:3916:23:50.5000:17:45
121162SALAMORIS1973M1OTRI 1 COMO02:11:5216:24:03.7500:17:59
12287ZECCHINMASSIMO1967M3POOL SPORT02:11:5416:22:07.6500:18:00
12383TORTELLAGIACOMO1981S4PESCHIERA TRI02:12:1416:22:27.8000:18:21
124202TRENTINYURI1994S1TRI ALTO ADIGE02:12:1516:24:26.7000:18:22
125932BOCCHIOALESSANDRO1978S4G.S. MANERBA02:12:1516:30:24.8000:18:22
126822DALBONICRISTIAN1999JUAQUATIC CENTER TRIAT02:12:1616:30:25.5000:18:22
12766VELLANOANDREA1975M1GRANBIKE TRIATHLON02:12:2416:22:37.4500:18:30
128104SOSSELLADAVIDE1981S4CY LASER TRI SCHIO02:12:2516:22:39.0000:18:32
129212ZAMBELLIPAOLO1981S4S.S.D. SCHIANTARELLI02:12:3116:24:42.2000:18:37
13057MARCHIORIMICHELE1977M1TREVISO TRI02:12:3516:22:48.7500:18:42
131173BOLLETTACLAUDIO1966M3A302:12:3916:24:50.2500:18:45
132232SORBARICCARDO1970M2FREEZONE02:12:4816:24:59.2000:18:54
13380VANNONIERMANNO1967M3T.D. RIMINI02:12:5716:23:10.6000:19:03
134146BULETTORICCARDO1991S2FERALPI TRIATHLON02:12:5816:23:11.8500:19:05
135110PICENNIVANES1977M1STEEL T - BG02:13:0216:23:16.0500:19:09
136140AIELLIANTONIO1980S4THE HURRICANE S.S.D.02:13:0416:23:17.8000:19:11
137187CELEBRESAVERIO1980S4THE HURRICANE S.S.D.02:13:1016:25:21.5000:19:16
138192TIRELLIRICCARDO1984S3TRIATHLON COLLI VELO02:13:1016:25:21.9000:19:17
139862BARACCHIUMBERTO1985S3A.S.D. TORINO TRIATH02:13:1216:31:21.6000:19:18
140260CUCCOLINIDIEGO1978S4COOPERATORI02:13:1316:25:25.0000:19:20
141278ARCHESSOLUCA1971M2PADOVANUOTO TRI02:13:2216:25:33.9500:19:29
142195TURRINAMARCO1974M1DESENZANO TRIATHLON02:13:2416:25:35.5000:19:30
143144DE ROSSIANDREA1977M1PADOVANUOTO TRI02:13:2716:23:40.6000:19:33
144830CATTANEOLUCA1994S1TRIATHLON CREMONA ST02:13:3416:31:43.8500:19:41
145827RITARDOANDREA1995S1FERALPI TRIATHLON02:13:3816:31:47.1000:19:44
146129ZECCHINASTEFANO1974M1S.S.D. SCHIANTARELLI02:13:5416:24:07.8500:20:01
147155COLETTOGIANMARIA1979S4OTRI 1 COMO02:14:0016:24:13.8500:20:07
148211COBELLIALEX1979S4TRI ALTO ADIGE02:14:0116:26:13.0500:20:08
14998GUALENIMARCO1974M1ASD 226 TRIATHLON V.02:14:0316:24:16.1000:20:09
150167PEVERELLIFABIO1973M1OTRI 1 COMO02:14:0316:26:14.1000:20:09
151959MERLINDAVIDE1976M1PADOVA TRIATHLON02:14:0416:34:11.8000:20:11
152186STELLASIMONE1990S2CY LASER TRI SCHIO02:14:0616:26:17.2500:20:12
15395MORELLOENRICO VALENTINO1971M2TRIBU'02:14:0916:24:22.4000:20:15
1541013CONCERPAOLO1973M1NLF02:14:1016:34:17.5500:20:16
155106CASARINIMASSIMILIANO1977M1MODENA TRIATHLON02:14:1316:24:26.6000:20:19
156344ZANCHISTEFANO1982S4FREEZONE02:14:1816:28:29.5500:20:24
157185GALLIENAANTONIO1983S3OTRI 1 COMO02:14:2216:26:33.7000:20:29
158175LANZONIFEDERICO1988S2BUSTO ARSIZIO A.R.C.02:14:3116:26:42.1500:20:37
159196CRAPAROTTASAMUELE1974M1PROGETTO VISTA TRIAT02:14:3516:26:46.4000:20:41
160149MANZIALDO1978S4TRYLOGY02:14:4116:24:54.3500:20:47
161274IEZZIALESSANDRO1974M1THE HURRICANE S.S.D.02:14:4216:26:53.1500:20:48
162870SMELLINIALESSIO1984S3PESCHIERA TRI02:14:4416:32:53.7500:20:51
163131TORSANIMASSIMO1964M3T.D. RIMINI02:14:5316:25:06.5000:20:59
164844ZILIOCESARE1989S2TRIBU'02:14:5416:33:03.7500:21:01
165134PEDROTTIGIANMARIO1966M3VALTELLINA TRIATHLON02:14:5516:25:08.3000:21:01
166120CLARETTIROBERTO1970M2FREEZONE02:14:5716:25:10.4000:21:03
167914SOLDA'ALESSANDRO1980S4CUSIOCUP02:14:5916:33:08.7000:21:06
168127MARCIGAGLIAMATTIA1978S4PESCHIERA TRI02:15:0016:25:14.0500:21:07
169826LENZILORENZO1996S170702:15:0116:33:11.0500:21:08
170204LOSIGIACOMO1994S1PROGETTO VISTA TRIAT02:15:0316:27:14.9000:21:10
171249CHIARETTODEVID1975M1CUS PADOVA A.S.D.02:15:0416:27:15.3000:21:10
172125CARROZZODARIO1973M1OTRI 1 COMO02:15:0416:25:17.8000:21:11
173988PAOLETTIANDREA1975M1TRAGUARDO VOLANTE02:15:1416:29:25.2500:21:20
174132RAGAZZIDAVIDE1980S4VERONA TRIATHLON02:15:1516:25:29.0500:21:22
17582FIOREPIERLUIGI1961M4PESCHIERA TRI02:15:1916:25:32.2500:21:25
176135DI RAGOGNAENRICO1962M4POOL SPORT02:15:2516:25:38.8000:21:32
177248OSIOTIZIANO1967M3G.S. MANERBA02:15:3116:27:42.4000:21:37
17878AVIVALENTINO1997S1TRAGUARDO VOLANTE02:15:3416:25:47.5500:21:40
1791119MARILUCA1964M3CANOTRIATHLON02:15:3416:37:44.0500:21:41
180118LISTORTILUCA1973M1THE HURRICANE S.S.D.02:15:3716:25:50.3000:21:43
1811102GAGNOLAURENCE PATRICK1966M347 ANNO DOMINI02:15:3916:35:46.7000:21:46
182139MINARINIFABRIZIO1965M3OXYGEN TRIATHLON02:15:4416:25:58.0000:21:51
183257MORBIATOMATTEO1997S1MAS TRIATHLON02:15:4716:27:58.1000:21:53
184150TESTADAVIDE1970M2MOLINARI TRI COMO02:15:4816:26:01.2500:21:54
185126BACCHETTAALDO1970M2S.S.D. SCHIANTARELLI02:15:5116:26:04.5000:21:57
186235IOGNA-PRATSTEFANO1964M3ASD TRIATHLON LIGNAN02:15:5316:28:04.1000:21:59
187148MARCHESINIANDREA1975M1TRAGUARDO VOLANTE02:15:5416:26:08.0500:22:01
188181MILANESIROBERTO1979S4TRI.ONDAVERDE02:15:5516:28:07.0000:22:02
189184CANCELLIERIANGELO1972M2OXYGEN TRIATHLON02:15:5616:28:07.3000:22:02
190188MILANIWALTER1968M23 LIFE02:15:5616:28:07.7000:22:03
191123LIGIMICHELE1980S4T.D. RIMINI02:15:5916:26:12.6000:22:05
19276CORTELLAZZIENRICO1973M1EUROPA SSD02:16:0116:26:14.1000:22:07
193972QUINNMAXIMILIANO1975M1TRIATHLON BERGAMO02:16:0916:36:16.5500:22:15
194240FUMAGALLITHOMAS1992S2SPARTACUS TRILECCO02:16:1216:28:23.8000:22:19
195221BERTAGNAANDREA1980S4PESCHIERA TRI02:16:1316:28:24.3500:22:19
196261SANTOROGIANPIERO1972M2SPORTSLIFE02:16:1316:28:24.9000:22:20
197849MANCALORENZO1988S2FORHANS TEAM02:16:1416:34:23.5000:22:20
198208PIVALUCA1978S4FERALPI TRIATHLON02:16:1716:28:28.3000:22:23
199231ANDRIOLOMANUEL1983S33K TEAM02:16:2616:28:37.1000:22:32
200113ZENERELUCA1973M1VERONA TRIATHLON02:16:3316:26:46.2000:22:39
201944FUMAGALLIMAURO1977M1DE RAN CLAB02:16:3416:34:43.8000:22:41
202317CAPPELLOLUCA1982S4GRUPPO ETHOS RUNNING02:16:3716:28:48.8000:22:44
203156CRISTINIALESSANDRO1980S4DESENZANO TRIATHLON02:16:3916:26:52.4000:22:45
204863BOCCAFRANCESCO1984S3SAI FRECCE BIANCHE02:16:4216:34:51.5000:22:48
205847BORTIGNONGIANLUCA1988S2A302:16:4416:34:53.3000:22:50
206142MIGLIAVACCAPIETROALBERTO1979S4TRI RACE ROCK TEAM02:16:4916:27:02.7000:22:56
207226BENAZZIMAXIMILIANO1976M1A.S.D. RHODIGIUM TEA02:16:5516:29:07.0000:23:02
208119BORTOLETTOALBERTO1980S4CUS PADOVA A.S.D.02:16:5616:27:09.4000:23:02
209177LUCCHINILUCA1976M1PESCHIERA TRI02:16:5916:29:10.2000:23:05
210163SARTILUCA1968M2TRI ALTO ADIGE02:17:0716:29:19.0000:23:14
211206BEDONFRANCESCO1978S43K TEAM02:17:1316:29:24.9500:23:20
212124VITTORIALIALBERTO1981S4CUS BRESCIA02:17:2116:27:34.7000:23:28
213176JOTAZANDREA1982S4PROPATRIA MILANO02:17:2516:29:36.5500:23:31
214266BEGHINIMASSIMO1974M1ASD SPEZIA TRIATHLO02:17:2816:29:40.0500:23:35
215183ZELLIGIANLUCA1973M1THE HURRICANE S.S.D.02:17:2916:29:40.3500:23:35
216172ROLLOITALO1967M3FERALPI TRIATHLON02:17:3216:29:44.0000:23:39
217922MONDONICOGIORGIO1979S4SPORT 6402:17:4016:35:49.1000:23:46
2181020RICCIGIANLUCA1973M1FERALPI TRIATHLON02:17:4116:37:49.0000:23:48
219406MACIAS MOYDIEGO MANUEL1977M1OXYGEN TRIATHLON02:17:4316:31:54.2000:23:49
220199SAPIGNIDANILO1972M2T.D. RIMINI02:17:4316:29:54.9500:23:50
221220GOVERNOMARCO1965M3PESCHIERA TRI02:17:4716:29:58.2500:23:53
222283CAVALLINIMIRKO1970M2FUMANE TRIATHLON02:17:4816:29:59.7500:23:55
2231044BRIGNOLISAMUELE1971M2FREEZONE02:17:5816:38:05.8000:24:05
224250AMITIARNALDO1960M4SKY LINE NUOTO02:18:1016:30:21.7500:24:17
225227POTENZAGIANCARLO1970M2HAPPY RUNNER CLUB02:18:1016:30:21.8500:24:17
226259MARCHIVITTORIO1991S2VERONA TRIATHLON02:18:1816:30:29.4500:24:24
227267NEGRIMIRCO1974M1TRIATHLON CONCESIO02:18:2816:30:39.7500:24:35
228247ROMANIMATTEO1983S3DESENZANO TRIATHLON02:18:2916:30:40.1000:24:35
229251SAVOLDITOMMY1982S470702:18:3416:30:45.8500:24:41
230179MAGNACCAALEJANDRO MIGUEL1963M3G.P. TRIATHLON02:18:3916:30:50.5500:24:45
231145ROSSIALESSANDRO1978S4CY LASER TRI SCHIO02:18:4116:28:54.4000:24:47
232304FORNIZMASSIMO1973M1REACTION02:18:4116:30:52.8000:24:48
233341DI STEFANOALESSANDRO1979S4FORHANS TEAM02:18:4216:32:53.9000:24:49
234948ALBANESEANDREA1977M1VERONA TRIATHLON02:18:4516:36:54.9500:24:52
235191GIANELLINICOLA1974M1PESCHIERA TRI02:18:5116:31:02.8000:24:58
236911DOLZANITHOMAS1980S4KSV TRIATHLON02:18:5216:37:01.6000:24:58
237366VIANELLONICOLO'1966M3MODENA TRIATHLON02:18:5216:33:04.0500:24:59
238967BONIPAOLO1976M1GALILEO TRIATHLON02:18:5316:39:00.1000:24:59
239258GOEGELEGEORG1981S4SCM - TRIATHLON02:18:5316:31:04.7000:25:00
2401111ALLIATAPIETRO CESARE1965M3CUSIOCUP02:18:5616:41:05.7500:25:03
241393ZUCCHETTIDAVIDE1983S3NLF02:19:0116:33:12.3000:25:07
242271ISOLATOFABIO1974M1TRI TEAM BRIANZA02:19:0216:31:13.2500:25:08
243284CAPPELLARIDAMIANO1974M1ASI TRIATHLON NOALE02:19:0516:31:16.1500:25:11
244174MOTTAFRANCESCO1975M1THE HURRICANE S.S.D.02:19:1216:31:23.1000:25:18
245189FIANIGIORGIO1977M1CUS PADOVA A.S.D.02:19:1416:31:25.1000:25:20
246166SERRAPAOLO1981S4A TEAM02:19:1416:31:25.8500:25:21
247217CINTIERVIN1980S4DESENZANO TRIATHLON02:19:1616:31:27.6500:25:22
248291CAMBRUZZIMASSIMO1965M3CUS PADOVA A.S.D.02:19:2216:31:33.2500:25:28
249921FERRARIANDREA1979S4TRIATHLON COLLI VELO02:19:2416:37:33.7500:25:31
250878CANNAMICHELE1983S3BUSTO ARSIZIO A.R.C.02:19:3216:37:41.2500:25:38
251650NARDIELTO1977M1G.S. BARDOLINO02:19:3316:35:42.6500:25:39
252246LOVATOCHRISTIAN1981S4OXYGEN TRIATHLON02:19:3516:31:46.9000:25:42
253233BELOTTIRUDY1982S470702:19:3816:31:49.3500:25:44
254924MONTINISIMONE1979S4DOLOMITICA NUOTO CTT02:19:3816:37:47.6000:25:44
255843CANCELLIOSCAR1989S270702:19:4016:37:49.9000:25:47
256239GIOVANNOZZILORENZO1969M2DESENZANO TRIATHLON02:19:4316:31:54.3500:25:49
257230MELETTILUIGI1968M2MODENA TRIATHLON02:19:4316:31:54.8000:25:50
25897GAVAZZIMARCO1975M1SAMVERGA TRI02:19:4416:29:57.9500:25:51
2591191COURVOISIERCÉDRIC1973M1ESTERO02:19:4516:41:54.8500:25:52
260275DE BENIEDOARDO1991S2MB TRIATHLON02:19:5716:32:08.9500:26:04
261866MONDINNICOLA1984S3A302:19:5816:38:07.2000:26:04
262358ZANOTTIALESSANDRO1975M1FUMANE TRIATHLON02:20:0416:34:15.3000:26:10
2631178MIRABELLAPASQUALE1977M1TESSERAMENTO GIORNALIERO02:20:0616:42:15.6000:26:12
2641072COLOMBOCRISTIANO1969M2CSA GORIZIA02:20:0916:40:16.8000:26:16
265237CARROLIGIACOMO1972M2ASI TRIATHLON NOALE02:20:1416:32:25.2500:26:20
266310ACERBIDANIEL1975M1EUROPA SSD02:20:1416:32:26.0000:26:21
267325GIARRUSSOMAURIZIO1977M1AQUATIC CENTER TRIAT02:20:1716:34:28.6500:26:23
268197DORIAVINCENZO1967M3ASD CNM TRIATHLON02:20:2216:32:33.2000:26:28
2691110ZAMBONISTEFANO1965M3FERSENTRI A.S.D.02:20:2416:40:31.9000:26:31
270133PRESSELMARCO1973M1POOL SPORT02:20:2916:30:42.7000:26:36
271263SECCHISTEFANO1977M1ROAD RUNNERS02:20:3216:32:43.8000:26:39
272245CARNEVALIFABIO1981S4DE RAN CLAB02:20:3316:32:44.3500:26:39
273272MONTANIGIORGIO1966M3TRI NOVARA02:20:3416:32:45.4500:26:40
274834UBOLDILUCA1992S2OTRI 1 COMO02:20:3616:38:45.9000:26:43
275138GIANIFABIO1971M2PIANETA ACQUA02:20:3716:30:50.1500:26:43
276314SCOTTIMATTEO1978S4TRIATHLON BERGAMO02:20:4016:32:51.6500:26:46
277213ORLANDISTEFANO1966M3MB TRIATHLON02:20:4116:32:52.2500:26:47
278300TESSAROLUCA1969M2HAPPY RUNNER CLUB02:20:4216:32:54.0500:26:49
279152DOGINIGABRIELE1973M1DE RAN CLAB02:20:4316:30:56.8000:26:50
280269PAGANIMARCO1966M3VERONA TRIATHLON02:20:4316:32:55.0000:26:50
281207PADOVACRISTIAN1971M2AQUATIC CENTER TRIAT02:20:4416:32:56.0500:26:51
282209BISAZZAGIOVANNI1973M1CUS PADOVA A.S.D.02:20:4816:32:59.3500:26:54
283194MELOTTISILVANO1964M3VERONA TRIATHLON02:20:4916:33:00.1000:26:55
284303PEZZUCCHIAMOS1969M2ASD 226 TRIATHLON V.02:20:5116:33:02.2500:26:57
285453VALOTAPAOLO1977M1OLIMPIC TRIATHLON02:20:5316:35:04.1000:26:59
286222DONDENAFEDERICO1968M2ASD CNM TRIATHLON02:20:5316:33:04.2500:26:59
28796STACCHETTIALESSIO LAMBERTO1989S2BUSTO ARSIZIO A.R.C.02:20:5716:31:10.2500:27:03
288403MACCABIANILORENZO1976M1DESENZANO TRIATHLON02:21:0016:35:11.7500:27:07
289205ERCULIANINICOLA1971M2PESCHIERA TRI02:21:0616:33:17.1000:27:12
290828DOSSIUMBERTO1994S170702:21:0716:39:16.3500:27:13
291872BELTRAMIPAOLO1984S3FERALPI TRIATHLON02:21:0816:39:17.9500:27:15
292256ABONDIOGIAN CARLO1980S4ASD 226 TRIATHLON V.02:21:1016:33:21.1000:27:16
293635GABBIRICCARDO1968M2VENEZIA TRATHLON02:21:1116:37:20.5000:27:17
294218PEREGOFABIO1976M1DE RAN CLAB02:21:1516:33:26.1500:27:21
295255GARBELLIALESSANDRO1981S4EUROPA SSD02:21:1916:33:30.2500:27:25
296335PERSICHITTISTEFANO1971M2PROPATRIA MILANO02:21:2216:35:34.0000:27:29
297214BARBIERIENRICO1986S3FANO+SPORT TRIATHLON02:21:2516:33:36.5000:27:31
298336SPARBERFLORIAN1969M2KSV TRIATHLON02:21:3216:35:43.9000:27:39
299895GIARDINIGIACOMO1981S4RHO TRIATHLON CLUB02:21:3716:39:46.7000:27:44
300301CENACCHIALESSANDRO1971M2GRANBIKE TRIATHLON02:21:4416:33:55.9000:27:51
301320MAURIGINICOLA1980S4MB TRIATHLON02:21:4916:34:00.5500:27:55
3021030NAVADAVIDE1972M2TREVISO TRI02:21:4916:41:57.0000:27:56
303282GUARNIERIMASSIMO1964M3ATLETICA MANARA02:21:5516:34:06.5000:28:01
304465DE SANTISGIOVANNI1969M2ASD VICENZA TRIATHLO02:21:5616:36:08.0500:28:03
3051155NICORAMANUEL1987S3TESSERAMENTO GIORNALIERO02:21:5816:44:08.0500:28:05
306165BELTRAMIGENNARO1980S4FUMANE TRIATHLON02:22:0416:34:15.6000:28:10
307200CREMASCOLIGIANPAOLO1973M1SPORT 6402:22:0716:34:18.4000:28:13
308234DAMATOSAVINO1980S4ALL TRI SPORTS02:22:1016:34:21.6500:28:16
309297REINAVITTORIO1974M1OXYGEN TRIATHLON02:22:1516:34:26.1000:28:21
3101219RUSSOBARTOLOMEO1987S3DESENZANO TRIATHLON02:22:1916:32:32.4000:28:25
311122BASILISCOANDREA1971M2DERMOVITAMINA B) SID02:22:2616:32:39.4000:28:32
312340SEGALLAGABRIEL1965M3VERONA TRIATHLON02:22:3016:36:41.8000:28:37
313279MOGGIAGABRIELE1982S4DDS02:22:3016:34:42.0000:28:37
314332PAVANELLOANDREA1990S2CUS PADOVA A.S.D.02:22:3616:36:47.8000:28:43
315242CINQUETTILUCIO1963M3FUMANE TRIATHLON02:22:4016:34:51.2000:28:46
316210MACCARRONEMATTEO1981S4SPORT 6402:22:4016:34:51.2500:28:46
317228BOLONGAROGIOVANNI1969M2TRILAKE02:22:4216:34:53.8000:28:49
318357MAGOSSOPAOLO1985S3RHO TRIATHLON CLUB02:22:4216:36:53.8500:28:49
319656BOLZACCHINIFABIO1976M1PESCHIERA TRI02:22:4316:38:52.3500:28:49
320868VECCHISTEFANO1984S3VIADANA TRIATHLON02:22:4316:40:52.4000:28:49
321309SPOSITOANDREA1983S3PADOVANUOTO TRI02:22:4516:34:56.1000:28:51
322254LATTUCAGERLANDO1974M1OTRI 1 COMO02:22:5416:35:05.8000:29:01
3231148BANFIFRANCESCO1990S2TESSERAMENTO GIORNALIERO02:22:5516:45:04.4500:29:01
324384ZERBONIVALERIO1982S4ASD 226 TRIATHLON V.02:22:5716:37:08.7000:29:04
325262CANOSSIFRANCO1981S4ASD 226 TRIATHLON V.02:22:5816:35:09.5500:29:04
326841TAROZZIALESSANDRO1990S2T302:23:0116:41:10.3500:29:07
327413AVESANISTEFANO1980S4VERONA TRIATHLON02:23:0116:37:12.5000:29:07
328305AVIPAOLO1963M3TRAGUARDO VOLANTE02:23:0616:35:17.1500:29:12
3291203PERONIFLAVIO1968M2TESSERAMENTO GIORNALIERO02:23:0816:45:17.1500:29:14
330918BERTOLAPAOLO1980S4SNEF SSD A R.L.02:23:1116:41:20.3000:29:17
331168PRANDIMARCELLO1967M3GALILEO TRIATHLON02:23:1916:35:30.5500:29:25
332405MICHELOTTOANDREA1968M2CUS PADOVA A.S.D.02:23:2116:37:32.2000:29:27
333311ROSATIMASSIMO1959M4CUS PARMA ASD02:23:2116:35:32.3500:29:27
334265PARRAVICINIMARIO MATTEO1969M2MMTT02:23:2416:35:35.9500:29:31
335287ZAMPEDRIVINCENZO1968M2PROPATRIA MILANO02:23:3016:35:41.1500:29:36
336407BAFFILORENZO1981S4CONERO WELLNESS02:23:3016:37:41.4000:29:36
337337GUZZOFRANCO1966M3ASD VICENZA TRIATHLO02:23:3016:37:41.9000:29:37
338190GRIGOLETTIDANIELE1984S3PESCHIERA TRI02:23:3516:35:46.4000:29:41
3391008FERRIGATOPAOLO1974M1TRILAKE02:23:4016:43:47.3500:29:46
340925COBELLIDANIELE1979S4FERSENTRI A.S.D.02:23:4116:41:50.2000:29:47
341292PLANAMENTEANTONIO1960M4STEEL T - BG02:23:4416:35:55.6500:29:50
3421210DUDARIGOR1963M3ESTERO02:23:4716:45:56.1500:29:53
343831MARSONMANUEL1994S1CSS TRIATHLON VERONA02:23:4916:23:58.1000:29:55
344420CALIGARALORENZO1973M1OXYGEN TRIATHLON02:23:4916:38:00.8000:29:56
345238ALLEGRINIMAURO1962M4T.D. RIMINI02:23:5916:36:10.6000:30:05
346198MOROTTIDARIO1966M3OLIMPIC TRIATHLON02:24:0116:36:12.8000:30:08
3471209MOSCHETTALOUIS1964M3ESTERO02:24:0516:46:14.3500:30:11
348359PIOVANMAURIZIO1977M1A.S.D. RHODIGIUM TEA02:24:0516:38:17.0000:30:12
349386DUCAANDREA1969M2OXYGEN TRIATHLON02:24:1716:38:28.7000:30:24
3501172GUSSNIGFLORIAN1979S4TESSERAMENTO GIORNALIERO02:24:1816:46:28.0500:30:25
351379BOLANDRINAGIOVANNI1965M3FREEZONE02:24:2216:38:34.0000:30:29
352401COGOIGIANLUCA1968M2SBR 3ATHLON02:24:2316:38:34.9000:30:30
353339MASCINISTEFANO1977M1FORHANS TEAM02:24:2416:38:35.5000:30:30
354649PISTAMIGLIOMARCO1967M3ASD CNM TRIATHLON02:24:2616:40:35.4000:30:32
355350FARINAALESSIO1976M1CANAVESE TRIATHLON02:24:2916:38:40.5500:30:35
356455BIONDANIENRICO1964M3VERONA TRIATHLON02:24:3416:38:45.4000:30:40
357399PETANIALESSANDRO1966M3PROPATRIA MILANO02:24:3516:38:46.2000:30:41
3581132TAHANDAMIEN1963M3TEAM DISANTO COACHIN02:24:3816:46:47.6500:30:44
359244MANFRONIALESSANDRO1967M3T.D. RIMINI02:24:4316:36:54.8000:30:50
360333BATTISTIMARTINO1963M333 TT ASD02:24:5216:39:03.6000:30:58
3611218MASIEROMARCO1980S4G.S. ALPINI VICENZA02:24:5516:47:04.2000:31:01
362723BELLINISTEFANO1973M1VALBOSSA TRIATHLON02:24:5816:41:07.2500:31:04
363979SORRENTINOANTONGIULIO1975M1FIRENZE TRI02:24:5916:45:06.5000:31:05
364385MANZIALESSANDRO1966M3ROAD RUNNERS02:25:0216:39:13.4000:31:08
365836ANTONIOLIILARIO1991S2DESENZANO TRIATHLON02:25:0316:43:13.0500:31:10
3661065PISCETTALORENZO1970M2OXYGEN TRIATHLON02:25:0916:45:16.4500:31:15
367334BONICELLIMICHELE1977M1STEEL T - BG02:25:1016:39:22.0500:31:17
368394RATTOCLAUDIO1965M3LOS TIGRES02:25:1316:39:24.5500:31:19
369201BOSCHINICLAUDIO1974M1TRIATHLON BERGAMO02:25:1316:37:25.0500:31:20
370715ATERICLAUDIO1976M1A.S. AUTONOSATE02:25:1616:41:26.0500:31:23
371364MARINOGIANLUCA1974M1DE RAN CLAB02:25:2316:39:34.5000:31:29
372319CARMINATIGIACOMO1977M1TRIATHLON CREMONA ST02:25:2716:37:38.7000:31:34
373391LODDETOMMASO1969M2TREVISO TRI02:25:2916:39:40.4500:31:35
374698PIZZETTIROBERTO1974M1K3 CREMONA02:25:3016:41:40.0000:31:37
375891BARBIERIIVAN1982S4TEAM BIKE GUSSAGO AS02:25:3216:43:42.0000:31:39
376347CORRADIMAURIZIO1977M1ATLETICA MANARA02:25:3416:39:45.5500:31:40
377433SEGNINISTEFANO1980S4DR. INGELMANN02:25:3616:39:47.3500:31:42
378345BOSIMASSIMO1969M2PROGETTO VISTA TRIAT02:25:3916:39:50.1000:31:45
379877ZUBANIFABIO1983S3EUROPA SSD02:25:4116:43:50.1500:31:47
380479MAFFIOLILUIGI1973M1TRI NOVARA02:25:4616:39:57.4000:31:52
381298FASOLIDIEGO1973M1PESCHIERA TRI02:25:4716:37:58.4000:31:53
382871D'ANDREAMATTEOMARCO1984S3THE HURRICANE S.S.D.02:26:0216:44:11.1500:32:08
383363AIROLDIPAOLO1981S4ASD TEAM HIBISCUS02:26:0516:40:16.2000:32:11
384315PARIZZIFABIO1967M3RASCHIANI TRI PAVESE02:26:0616:38:17.5000:32:12
385389RONCASTEFANO1974M1FUMANE TRIATHLON02:26:0716:40:18.2000:32:13
386368AGNOLETTODAVIDE1984S3PADOVA TRIATHLON02:26:0716:40:18.7500:32:14
387424OLIVIERIALESSANDRO1970M2PESCHIERA TRI02:26:1316:40:24.5000:32:19
3881063CANEVAPAOLO1970M2VERDE PISELLO GROUP02:26:1616:46:23.9000:32:23
389889STONFERDANIELE1982S4FERSENTRI A.S.D.02:26:1716:44:26.4000:32:23
3901039RAIMONDIPAOLO1972M2BUSTO ARSIZIO A.R.C.02:26:2216:46:29.2000:32:28
391935TALARICOPASQUALE STEFANO1978S4OXYGEN TRIATHLON02:26:2416:44:33.5000:32:30
392477MARTINIGIANLUCA1970M2PESCHIERA TRI02:26:2616:40:37.3500:32:32
393375MIRANDOLADARIO1974M1FUMANE TRIATHLON02:26:2716:40:38.5000:32:33
394306ZANETTISTEFANO1973M1FUMANE TRIATHLON02:26:2816:38:39.3500:32:34
395994VENTURAFABIO FRANCESCO1975M1TRAGUARDO VOLANTE02:26:2816:46:35.5500:32:34
396387GAIERAGIANLUIGI1975M1A.S. AUTONOSATE02:26:3516:40:46.4000:32:41
397324CRISCUOLOMASSIMILIANO1970M2ASI TRIATHLON NOALE02:26:3516:40:46.9500:32:42
398225PIVETTICLAUDIO1969M2MODENA TRIATHLON02:26:3916:38:51.0500:32:46
399894MELEALESSANDRO1982S4OTRI 1 COMO02:26:4116:44:50.3500:32:47
400892MARCHINIALESSANDRO1982S4T.T. CESENATICO02:26:4516:44:54.3000:32:51
401378AGOSTINILUCA1965M3TRI TEAM BRIANZA02:26:4516:40:56.8500:32:52
402940VEZZAROPAOLO1977M1CY LASER TRI SCHIO02:26:4716:44:56.2000:32:53
403380BERTAZZONIPAOLO1966M3CANOTRIATHLON02:26:4716:40:58.6000:32:53
404949NIKOLOSKIOSKAR1977M1TRI TEAM BRIANZA02:26:5116:45:00.8500:32:58
405203ROSSIANDREA1984S3PRECISION TEAM02:26:5516:39:06.9000:33:02
406268MACAGNANOANDREA1974M1A TEAM02:26:5916:39:11.0000:33:06
4071010FARNARAROMASSIMO1974M1DERMOVITAMINA B) SID02:27:0316:47:10.2000:33:09
408382TORTIMANICOLA1970M2PESCHIERA TRI02:27:0516:41:16.6500:33:11
4091049BRUNELLIARNAUD1971M2FREEZONE02:27:0716:47:14.9500:33:14
410264PASQUALINIMARTINO1964M33K TEAM02:27:0916:39:20.9000:33:16
411888BIANCHETTIALEX1982S4TEAM BIKE GUSSAGO AS02:27:1016:45:19.3000:33:16
412374SAMMARINIALBERTO1968M2TRIBO02:27:1216:41:23.6500:33:18
413438DI PERNAFLAVIO1967M3TREVISO TRI02:27:1516:41:26.2500:33:21
414276PARAVANOGABRIELE1970M2JALMICCO TRIATHLON02:27:1616:39:27.6500:33:22
4151156VICENTINIMARCELLO1985S3TESSERAMENTO GIORNALIERO02:27:1716:49:26.4000:33:23
416941USARDISTEFANO1977M1VERONA TRIATHLON02:27:1716:45:26.4500:33:23
417833MOUSTAFAMARCO AHMED1993S1TRIATHLON BERGAMO02:27:1716:45:26.9000:33:24
418447BARETTODAVIDE1971M2RUNNERS SALO'02:27:2316:41:34.3500:33:29
4191074LOCATELLIANDREA1969M2STEEL T - BG02:27:2316:47:31.0500:33:30
420390CALZAVARANICOLO'1986S3PADOVANUOTO TRI02:27:2416:41:35.2000:33:30
421299MAGAGNOTTIMARCO1973M1PESCHIERA TRI02:27:2416:39:36.0000:33:31
422446MAMONEDARIO1969M2MB TRIATHLON02:27:2516:41:36.7000:33:32
423671BELLINICORRADO1964M3TRI TEAM BRIANZA02:27:2516:43:34.9500:33:32
424913RIZZINICOLA1980S4VERONA TRIATHLON02:27:2616:45:35.9500:33:33
425253CAMPISISALVATORE1988S2A.S.MINERVA ROMA02:27:2716:39:38.7500:33:34
426338CARLINIDOMENICO1972M2FERALPI TRIATHLON02:27:2816:41:39.3000:33:34
427478MENEGHELLIMANUELPEDRO1990S2VERONA TRIATHLON02:27:2816:41:40.0000:33:35
428307BORDIGNONNICOLA1976M1VERONA TRIATHLON02:27:3116:39:42.7500:33:38
429412CROCEMATTEO1979S4SARONNO TRIATHLON02:27:3216:41:44.0000:33:39
430354MAVEROPAOLO RENZO1968M2SPARTACUS TRILECCO02:27:3316:41:44.1000:33:39
431388PALADINIALESSANDRO1981S4A.S.D. SESSANTALLORA02:27:3516:41:46.8000:33:42
4321164ALBANIGIANFRANCO1981S4TESSERAMENTO GIORNALIERO02:27:3916:49:48.3500:33:45
433835GALLOFEDERICO1992S2OXYGEN TRIATHLON02:27:3916:45:48.9000:33:46
434353PESCECORRADO1965M3VERONA TRIATHLON02:27:4816:41:59.2000:33:54
435468ZANOTTIROBERTO1970M2TRI NOVARA02:27:4916:42:00.1000:33:55
436470ANDINAPAOLO1969M2TRIBU'02:27:4916:42:00.7000:33:56
437876ZANOTTIANDREA1983S3A.S.D. SESSANTALLORA02:27:5016:45:59.8500:33:57
438451CARDAZZIDAVIDE1969M2RASCHIANI TRI PAVESE02:27:5116:42:02.8000:33:58
439395AQUILINIANDREA1985S3STEEL T - BG02:27:5516:42:06.5500:34:01
4401048SKIENJON OLAV1971M2OXYGEN TRIATHLON02:27:5516:48:02.7000:34:02
4411017DEL PIVOWILLIAM1973M1DINAMO TRIATHLON02:27:5616:48:03.3500:34:02
442356LIGORIOGIUSEPPE1978S4SPORT 6402:27:5716:42:08.2000:34:03
443971PITZOLUDANIELE1975M1OXYGEN TRIATHLON02:27:5916:48:06.2000:34:05
4441125CAPODAGLIOITALO1964M3TRI TEAM BRIANZA02:28:0616:50:15.4500:34:12
445224RANDOMATTEO1980S4VERONA TRIATHLON02:28:0716:40:19.0500:34:14
446355PIGNATTIDAVIDE1974M1CUS FERRARA02:28:0816:42:19.4000:34:14
447351BARONESTEFANO1970M2A.S.D. TORINO TRIATH02:28:1116:42:22.2500:34:17
448432SEGATOEMANUELE1978S4SNEF SSD A R.L.02:28:1116:42:22.7500:34:18
449730MONTERISIRODOLFO1966M3RHO TRIATHLON CLUB02:28:1516:44:24.1500:34:21
4501007ZALLONIDAVIDE1974M1TREVISO TRI02:28:1816:48:25.1500:34:24
4511166FOSSATISIMONE1981S4TESSERAMENTO GIORNALIERO02:28:2116:50:30.6000:34:27
452638FERRAROLORENZO1980S4ASI TRIATHLON NOALE02:28:2316:44:32.6000:34:29
453987TORCHIOIVANO1975M1OXYGEN TRIATHLON02:28:2316:48:31.0500:34:30
454343ROCCHIOFABRIZIO1964M3PROPATRIA MILANO02:28:2416:42:36.0500:34:31
455459ROSSICLAUDIO1983S3TRI ALTO ADIGE02:28:2616:42:37.6500:34:32
4561043GRANUZZOANDREA1971M2FUMANE TRIATHLON02:28:3216:48:39.9000:34:39
457745VIMERCATIMASSIMO1968M2PIACENZA TRI VIVO02:28:3316:44:42.4500:34:39
458223TRIVELLALEONARDO1969M2DESENZANO TRIATHLON02:28:3916:40:50.3000:34:45
459968CACCIATOREMARCO1976M1FRIESIAN TEAM02:28:4416:48:51.9500:34:51
460637GABELLAENRICO1973M1TEAM BIKE GUSSAGO AS02:28:4916:44:58.5500:34:55
461241PAPPERIDANILO1978S4DINAMO TRIATHLON02:28:5016:41:01.5000:34:56
462674ANSELMICRISTIANO1969M2A TEAM02:28:5216:45:01.1500:34:58
463672DEL BENERICCARDO1966M3TRIATHLON ALTO TEVER02:29:0016:45:09.7500:35:07
464954FACCHINIFABRIZIO1976M1EUROPA SSD02:29:0216:49:09.2500:35:08
4651005BAZZONIDAVIDE1974M1OTRI 1 COMO02:29:0216:49:09.7000:35:09
466326DECO'ANDREA1985S3AQUATIC CENTER TRIAT02:29:0216:43:13.9500:35:09
467277PAGANIANTONIO1966M3FREEZONE02:29:0416:41:15.4500:35:10
468330DE PALMADAVIDE MAURO1983S3VTT02:29:0716:43:18.6000:35:13
469377CAVAZZADANIELE1978S4GALILEO TRIATHLON02:29:0816:43:19.3000:35:14
470764TAMANTINICHRISTIAN1973M1TREVISO TRI02:29:1116:45:20.2500:35:17
4711170MULATTIERIVALERIO1979S4ESTERO02:29:1116:51:20.6500:35:17
472645ANTONIOTTIETTORE1966M3IRONBIELLA02:29:1316:45:22.8000:35:20
473362BUCCOMINOALESSANDRO1969M2ROAD RUNNERS02:29:1416:43:25.3000:35:20
474329LANFRANCHISTEFANO1968M2RASCHIANI TRI PAVESE02:29:1716:43:28.5000:35:23
475896MANZONIMARCO1981S470702:29:1916:47:28.6000:35:25
476323BERTONIVITTORIO1967M3FERALPI TRIATHLON02:29:1916:43:30.7000:35:26
477995ROCCASTEFANO1974M1EUROPA SSD02:29:2216:49:29.9000:35:29
478898GAZZOLDIALESSANDRO1981S4DESENZANO TRIATHLON02:29:2316:47:32.3000:35:29
4791079PAPPADA'DOMENICO1969M2PROPATRIA MILANO02:29:2516:49:32.7000:35:32
480331LO PARCOALESSANDRO1973M1VERONA TRIATHLON02:29:2916:43:40.2000:35:35
481450VITALONEGIUSEPPE1982S4ALMOSTHERE ASD02:29:2916:43:40.8000:35:36
482646CROSTASILVANO1966M3VALBOSSA TRIATHLON02:29:3016:45:39.2500:35:36
483846VILLAGABRIELE1989S2OTRI 1 COMO02:29:3116:47:40.8000:35:38
484400MARCHESINIIVAN1978S4G.S. BARDOLINO02:29:3216:43:43.3500:35:38
485346DELLA TORRESTEFANO1967M3RHO TRIATHLON CLUB02:29:3216:43:43.7000:35:39
4861129RUFFINIMASSIMO1963M3RUNNERS SALO'02:29:3416:51:44.0000:35:41
487444PATRINIDAVIDE ANTONIO1972M2TRIATHLON CREMONA ST02:29:3516:43:46.7000:35:42
488788BOSSISERGIO1964M3RASCHIANI TRI PAVESE02:29:3716:45:46.9500:35:44
489985CORSETTOSIMONE1975M1IRONBIELLA02:29:3816:49:45.7500:35:45
490440GUARNIERIGABRIELE1957M5TRIATHLON BERGAMO02:29:4016:43:51.4500:35:46
491471AGUANNOMATTEO1972M2A302:29:4316:43:54.7000:35:50
492854LONGOPAOLO1987S3TRIBU'02:29:4616:47:55.1000:35:52
493903SALAROLODAVIDE1981S4VERONA TRIATHLON02:29:4816:47:57.4000:35:54
494428GALLOCCHIOCRISTIAN1982S4VALBOSSA TRIATHLON02:29:5116:44:02.6000:35:57
495381BALDERIANDREA1963M3CUS FERRARA02:29:5416:44:05.4000:36:00
4961173TACCONIDAVID1979S4TESSERAMENTO GIORNALIERO02:29:5416:52:03.7500:36:01
497955GUARESCHIPAOLO1976M1DUEMMECORSE02:29:5816:50:05.1500:36:04
498662SCAGLIASTEFANO1973M1ASD ZENA TRI TEAM02:30:0016:46:09.9000:36:07
499966SEVERGNINIMATTEO1976M1ROAD RUNNERS02:30:0116:50:08.7000:36:08
500437SCALVINIVALERIO1965M3TRAGUARDO VOLANTE02:30:0216:44:13.4000:36:08
501193BARAZZUTTIALESSIO1966M3G.S. BARDOLINO02:30:0216:42:13.6500:36:08
502417SICAGIANLUCA1978S4FUMANE TRIATHLON02:30:0416:44:16.0000:36:11
5031215ALLIEVIANDREA1963M3OTRI 1 COMO02:30:1116:52:20.7000:36:18
504348ABBRUZZIGABRIELE1987S3HAPPY RUNNER CLUB02:30:1116:44:22.9500:36:18
505409BRUNATODANIELE1972M2KSV TRIATHLON02:30:1316:44:24.3000:36:19
506853CONTESSIANTONIO1987S3ASD 226 TRIATHLON V.02:30:1616:48:26.0000:36:23
507273PATTINISERGIO1966M3MMTT02:30:1616:42:28.0000:36:23
508408ZENNAROALBERTO1965M3A.S. DELFINO CHIOGGI02:30:1716:44:28.5500:36:23
509909VRATONJAALAN1980S43K TEAM02:30:2216:48:31.9500:36:29
510927GUINCHARDDAVID1978S4TEAM BIKE GUSSAGO AS02:30:2416:48:33.1500:36:30
511689MIORANDIROBERTO1965M333 TT ASD02:30:2416:46:33.5500:36:30
512938SIVIERIGIORGIO1978S4TRI ALTO ADIGE02:30:2516:48:34.7500:36:32
5131018GASTALDIERMINIO1973M1K3 CREMONA02:30:2616:50:33.6000:36:32
514457SAVASTANOMARCO1973M1ASD SPEZIA TRIATHLO02:30:3016:44:41.2500:36:36
515992LOVISOTTOLUCA1975M1JOY TRIATHLON SCHOOL02:30:3316:50:40.3000:36:39
516281BIONDAALBERTO1972M2TRILAKE02:30:3316:42:44.8500:36:40
517372LUGOBONISTEFANO1967M3FUMANE TRIATHLON02:30:3616:44:47.4500:36:42
518850FALCONEMATTIA1987S3TRILEDROENERGY A.S.D02:30:3616:48:46.0000:36:43
519952PIANCONEMICHELE1976M1ROAD RUNNERS02:30:4316:50:50.4000:36:49
520369BANFIALESSIO1977M1FREEZONE02:30:4616:44:58.0000:36:53
521680GIBBINDANIELE1967M3A.S. DELFINO CHIOGGI02:30:4816:46:57.3500:36:54
522342NICOLISMARCO1966M3CUS VERONA02:30:5016:45:01.8500:36:57
523418GHIRARDELLOLUCA1986S3A302:30:5116:45:02.7000:36:58
5241160AMBROSINOGIACOMO1982S4TESSERAMENTO GIORNALIERO02:30:5216:53:01.8000:36:59
525943MAZZUCCHIALESSIO1977M1TEAM BIKE GUSSAGO AS02:30:5416:49:03.8500:37:01
526901GAVAZZIALESSANDRO1981S4SAMVERGA TRI02:30:5716:49:06.7000:37:04
527904FUSCALDOROBERTO1980S4SAMVERGA TRI02:30:5716:49:06.9000:37:04
528897BEGHETTOGIOVANNI1981S4ASD VICENZA TRIATHLO02:30:5916:49:08.1500:37:05
529469DE ANTONIPAOLO1967M3ASD TRIATHLON LIGNAN02:31:0316:45:14.7000:37:10
530285GALLINAALFREDO1969M2FERALPI TRIATHLON02:31:0416:43:15.9000:37:11
5311003COLAIANNILOUIS1974M1FREEZONE02:31:0816:51:16.0000:37:15
532839DALLA VECCHIAMATTIA1990S2CY LASER TRI SCHIO02:31:1916:49:28.4000:37:25
533383ZANUSOSTEFANO1974M1VERONA TRIATHLON02:31:2016:45:31.1500:37:26
534302BIONDANIDAVIDE1968M2MB TRIATHLON02:31:2016:43:31.5500:37:26
535430CANOSSINIROBERTO1974M1GALILEO TRIATHLON02:31:2816:45:39.1500:37:34
536728GUZZOCALOGERO1974M1RASCHIANI TRI PAVESE02:31:2816:47:38.0500:37:35
5371077BERTOLAROBERTO1969M2SPARTACUS TRILECCO02:31:3816:51:45.2500:37:44
538159INVERNIZZIBRUNO1971M2ESTERO02:31:3816:41:51.5000:37:44
539416BORTOLASOMARCO1971M2DESENZANO TRIATHLON02:31:4016:45:51.6000:37:46
540676CUCCHINIANDREA1982S4ASD 226 TRIATHLON V.02:31:4416:47:53.1500:37:50
541908LUNARDIMASSIMO1980S4DR. INGELMANN02:31:4416:49:53.7000:37:51
542890ZANINISTEFANO1982S4A.S.D. VARESE TRIATH02:31:4516:49:54.3000:37:51
543683CASTELNOVOSTEFANO1974M1SARONNO TRIATHLON02:31:4816:47:57.1000:37:54
544398BENEDETTISTEFANO1970M2T'N'T SSD02:31:4916:46:00.9000:37:56
545639SPINAALESSANDRO1983S3TRI TEAM BRIANZA02:31:5216:48:02.0000:37:59
546885BONAEMANUELE1982S4TEAM BIKE GUSSAGO AS02:31:5416:50:03.9500:38:01
547434ZULIANIMARCO1979S447 ANNO DOMINI02:31:5516:46:06.9000:38:02
548462BORTOLETTOALESSANDRO1973M1CUS PADOVA A.S.D.02:32:0516:46:16.8000:38:12
549970BELLOCHRISTIAN1976M1AQUATIC CENTER TRIAT02:32:0716:52:14.8500:38:14
550421LAZZARINDIEGO1971M2OTRI 1 COMO02:32:0816:46:19.2000:38:14
5511103CLERICIDAVIDE1966M3TRI TEAM BRIANZA02:32:2116:52:28.7000:38:28
552981CRISTOFOLINIPAOLO1975M1ASD TRIATHLON 3V02:32:2816:52:36.0500:38:35
553460SCODELLERMARCO1958M4FUMANE TRIATHLON02:32:3616:46:47.9500:38:43
554411BOSSIWALTER GIUSEPPE1965M3HAPPY RUNNER CLUB02:32:3816:46:49.2000:38:44
555370PAROLIERCOLE1963M3FREEZONE02:32:3816:46:50.0000:38:45
556701BARASSIROBERTO1974M1ROAD RUNNERS02:32:4116:48:50.1500:38:47
5571011NATALEAURELIO1974M1THE HURRICANE S.S.D.02:32:4216:52:49.6500:38:48
558937PROLETTISIMONE1978S4TRITALY ASD02:32:4816:50:57.2500:38:54
559902CECHETALAN1981S4CSA GORIZIA02:32:5016:50:59.9000:38:57
560670GUGLIELMIFRANCESCO1966M3PRECISION TEAM02:32:5416:49:03.8000:39:01
561856GAMBAFABIO1986S3AQUATIC CENTER TRIAT02:32:5616:51:05.7000:39:03
562716VON WUNSTERGIAMPAOLO1961M4TRIATHLON BERGAMO02:32:5916:49:08.8000:39:06
563725CHIAPPETTAMARCO1983S3RHO TRIATHLON CLUB02:33:0516:49:14.7000:39:12
564392TASSANSTEFANO1966M3RHO TRIATHLON CLUB02:33:0616:47:17.4500:39:12
565452TERENZINILUCA1975M1ATLETICA MANARA02:33:0916:47:20.9000:39:16
566476FERRARIOROBERTO1965M3BUSTO ARSIZIO A.R.C.02:33:1216:47:23.6000:39:18
5671034CELLEGHINRICCARDO1972M2CASTELFRANCO TRIATHL02:33:1916:53:26.7500:39:26
5681032PAVARANILUCA1972M2CUS PARMA ASD02:33:2016:53:27.5500:39:26
569704GARAUGIUSEPPE1976M1TRITALY ASD02:33:2316:49:32.8000:39:30
5701163AMATOALESSANDRO1981S4TESSERAMENTO GIORNALIERO02:33:2316:55:32.8500:39:30
5711038CALZA'THOMAS1972M233 TT ASD02:33:2616:53:33.2000:39:32
572916NADALDARIO1980S4TRITEAMPORDENONE02:33:3216:51:42.0500:39:39
573771SALONIANDREA1968M2ASD SPEZIA TRIATHLO02:33:4116:49:51.0500:39:48
574852PERSANOGIORGIO1987S3TRIATHLON CREMONA ST02:33:4816:51:57.7000:39:55
5751167BENIGNICRISTIAN1980S4TESSERAMENTO GIORNALIERO02:33:4916:55:59.0000:39:56
576699FACCIONIROBERTO1983S3FUMANE TRIATHLON02:33:5016:49:59.3000:39:56
577480FINOTTODONATO1961M4POLISPORTIVA FOSSALT02:33:5016:48:01.9500:39:57
578684SACCODANIELE1974M1OXYGEN TRIATHLON02:33:5416:50:03.2000:40:00
579445PRIMAVESIDARIO1970M2PROPATRIA MILANO02:34:0116:48:12.6000:40:07
5801064FAVELLALUCA1970M2VIADANA TRIATHLON02:34:0216:54:09.2500:40:08
581777FIORIPAOLO1977M1THE HURRICANE S.S.D.02:34:0216:50:11.7000:40:09
582360FERRARISIMONE1983S3ZEROTRENTA TRIATHLON02:34:0216:48:13.8000:40:09
583692MARCHETTOFABIO1967M3TREVISO TRI02:34:0216:50:11.9000:40:09
584641VARDIEROVLADI1957M5ASI TRIATHLON NOALE02:34:0416:50:13.5000:40:10
5851113POSSENTILUCA1965M3EUROPA SSD02:34:0616:56:15.7000:40:13
586361BOCCHIMATTEO1972M2ATLETICA MANARA02:34:1416:48:25.1000:40:20
587270DE CORTIROBERTO1974M1JALMICCO TRIATHLON02:34:1516:46:26.6000:40:21
5881059BENETELLOMIRCO1970M2TRI ALTO ADIGE02:34:2516:54:32.7000:40:32
589456BORGHETTIGIANLUCA1974M1ASD TRIATHLON 3V02:34:2616:48:37.8500:40:33
590737CASETTISANDRO1971M2GRANBIKE TRIATHLON02:34:3016:50:39.3000:40:36
591677RIGAMONTIEMILIO1977M1SARONNO TRIATHLON02:34:3316:50:43.0000:40:40
592696MARCHIOTTOMASSIMO1970M2DOLOMITICA NUOTO CTT02:34:3716:50:46.8500:40:44
593936CORBELLAMATTEO1978S4TRIATHLON CREMONA ST02:34:3916:52:48.6000:40:45
594919PULGACLAUDIO1980S4TRIATHLON CREMONA ST02:34:3916:52:48.8000:40:46
5951047IOVANEJOSUE' ESAU'1971M2TRI ALTO ADIGE02:34:4316:54:50.3000:40:49
596930SCARIOLOMARCO1978S4DE RAN CLAB02:34:4516:52:54.8000:40:52
597655NENCIONIGABRIELE1970M2ROAD RUNNERS02:34:4716:50:56.9000:40:54
598864CATTAZZOCLAUDIO1984S3ASD VICENZA TRIATHLO02:34:5316:53:02.2000:40:59
599758ANGELINIDAVIDE1985S3GRANBIKE TRIATHLON02:34:5316:51:02.7000:41:00
600402VASONFABIO1957M5PADOVA TRIATHLON02:34:5416:49:05.2000:41:00
601675VEGHINIALESSANDRO1976M1FUMANE TRIATHLON02:34:5716:51:06.7500:41:04
602419RIGOMICHELE1979S4ASD VICENZA TRIATHLO02:35:0416:49:15.7500:41:11
603743CAVERZANMASSIMO1974M1A302:35:0616:51:15.3500:41:12
604439PARMIGIANICHRISTIAN1976M1ASD CNM TRIATHLON02:35:1216:49:23.1000:41:18
6051123BARBUGLIOLUCA1964M3PADOVA TRIATHLON02:35:3016:57:39.6500:41:36
606458MORIDAVIDE1972M2ATLETICA MANARA02:35:3316:49:45.0000:41:40
607664FUCCELLALORENZO1974M1PROPATRIA MILANO02:35:4016:51:49.3000:41:46
608772CECCONIANDREA1968M2T302:35:4316:51:52.1500:41:49
609686GIANNONEGIUSEPPE1980S4PROPATRIA MILANO02:35:5216:52:01.7500:41:59
610312FORMOSAIAIN1970M2OXYGEN TRIATHLON02:35:5716:48:08.7000:42:04
611733BERTOFEDERICO1970M233 TT ASD02:36:0316:52:12.7000:42:10
612640PIAZZASILVIO1969M2HAPPY RUNNER CLUB02:36:0416:52:14.0500:42:11
613721SUSETTIFRANCESCO1965M3T.D. CREMONA02:36:0816:52:17.5000:42:14
614786TADIELLOCARLO MARIA1962M4VERONA TRIATHLON02:36:0916:52:18.8500:42:16
6151041DE MARCHICLAUDIO1971M2OTRI 1 COMO02:36:1116:56:19.0000:42:18
616946BENEDETTISTEFANO1977M1VERONA TRIATHLON02:36:1416:54:23.9000:42:21
617912AVELLAPAOLO1980S4VTT02:36:1516:54:24.8500:42:22
618441MALERBACARLO1970M270702:36:1616:50:27.4500:42:22
619660MARIANIROMEO1966M3VTT02:36:1716:52:26.9500:42:24
620760TRAZZICLAUDIO1960M4VERONA TRIATHLON02:36:2316:52:32.8000:42:30
621917DE ROSASALVATORE1980S4OTRI 1 COMO02:36:2516:54:34.3000:42:31
622718MORRIONEMAURIZIO1955M5TRI ALTO ADIGE02:36:3116:52:40.3000:42:37
623693CRESCINIFULVIO1986S3TEAM BIKE GUSSAGO AS02:36:3616:52:45.4000:42:42
624472LORUSSOANDREA1955M5SBR 3ATHLON02:36:3616:50:47.8000:42:43
625741PIZZOLITTOMARCO1971M2JCT VIGEVANO02:36:3816:52:47.7000:42:45
626466CAVALLERIMARCO1964M3FREEZONE02:36:4316:50:54.2000:42:49
6271058FERRARISIMONE1970M2S.S.D. SCHIANTARELLI02:36:4516:56:52.5000:42:51
628953CASSIANIMARCO1976M1IN SPORT SRL SSD02:36:4816:56:55.8500:42:55
629976BORTOLIPIETRO1975M1CY LASER TRI SCHIO02:36:5016:56:57.8000:42:57
630720MASCELLAFEDERICO1965M3PRECISION TEAM02:36:5116:53:00.5500:42:57
6311022D'AMBROSIOEMANUELE1973M1SPORT 6402:36:5216:56:59.6000:42:58
6321198SAINIMIRKO1972M2TESSERAMENTO GIORNALIERO02:36:5816:59:07.1000:43:04
633705PERNSTICHFRANK1971M2KSV TRIATHLON02:37:0116:53:10.1500:43:07
634289CREMASIMONE1970M2PESCHIERA TRI02:37:1716:49:28.3500:43:23
635963POZZILORENZO1976M1VTT02:37:2116:57:28.2500:43:27
636688BERNAMARCO1963M3IRONBIELLA02:37:2916:53:38.2000:43:35
637682POZZOSTEFANO1983S3IRONBIELLA02:37:2916:53:38.6500:43:35
638429MOSCAALBERTO1963M3ZEROTRENTA TRIATHLON02:37:3016:51:41.7500:43:37
639993ABENIMIRKO1975M1TRIATHLON CREMONA ST02:37:4216:57:49.4500:43:48
640719GELUSSIPIERPAOLO1970M2PHISIO SPORT LAB TRI02:37:4616:53:55.5000:43:52
641473FRISONECHRISTIAN1981S4POLISPORTIVA SAN VIT02:37:4916:52:00.3000:43:55
642633TEALDICORRADO1987S3GRANBIKE TRIATHLON02:37:4916:53:58.9000:43:56
643396SOZZIDARIO1971M2RHO TRIATHLON CLUB02:37:5416:52:05.2500:44:00
6441080CRESPIFABRIZIO1969M2TRIATHLON BERGAMO02:37:5716:58:04.4500:44:03
645653GIUNZIONIROBERTO1969M2CALYPSO TRIATHLON02:37:5816:54:08.0000:44:05
646857MASTRANDREASIMONE1986S3TRI TEAM BRIANZA02:38:0116:56:10.1000:44:07
647739TRENTAANDREA1982S4DESENZANO TRIATHLON02:38:0216:54:11.9000:44:09
648756GIURIATOANDREA1968M2TRIBO02:38:0516:54:14.9000:44:12
649461RIGHINICLAVIO1961M4IMOLA TRIATHLON02:38:1316:52:24.8000:44:20
6501180CAIMMIANDREA1976M1TESSERAMENTO GIORNALIERO02:38:1317:00:23.0500:44:20
651685DOMININMAURIZIO1957M5EROI DEL PIAVE02:38:1416:54:23.8000:44:21
652648ARCELLASCHISERGIO1977M1DDS02:38:2916:54:38.1500:44:35
653711WURMENRICO VITTORIO1981S4TRI EVOLUTION02:38:3816:54:47.4500:44:44
654295SCAGLIOLAMARCO1977M1A.S. VIRTUS02:38:4016:50:51.1000:44:46
655960MORONIALESSANDRO1976M1SPORT 6402:38:4316:58:50.1500:44:49
6561060IOTTIMAURO1970M2DE RAN CLAB02:38:4716:58:54.5000:44:53
657431SILVIARENATO1957M5AQUATIC CENTER TRIAT02:38:5916:53:10.4000:45:05
6581028ARRIGHETTIMAURIZIO1972M2EUROPA SSD02:38:5916:59:06.6000:45:05
659651BLASISIMONE1972M2ASD CNM TRIATHLON02:39:0416:55:13.8000:45:11
660744FERRETTIFRANCESCO1982S4FREEZONE02:39:2316:55:32.8000:45:30
661727MARZAROLIEGIDIO1972M2K3 CREMONA02:39:3116:55:40.2000:45:37
662636ZANELLAALESSANDRO1966M3VERONA TRIATHLON02:39:3616:55:45.2000:45:42
6631168TERENTIEVPAVEL1980S4ESTERO02:39:3917:01:48.4000:45:45
664690AROSIOMASSIMO1964M3RHO TRIATHLON CLUB02:39:4516:55:54.4500:45:51
6651121BORGIOALESSANDRO1964M3IRONBIELLA02:39:5017:01:59.1000:45:56
666652SQUILLONIPAOLO1967M3DERMOVITAMINA B) SID02:39:5016:55:59.5500:45:56
667797CISCOSTEFANO1969M2ASD VICENZA TRIATHLO02:39:5016:58:00.0500:45:57
6681026GIANOLADANIELE1973M1ASD TRIATHLON 3V02:39:5517:00:02.3000:46:01
669765MICILOTTAFABIO1974M1RASCHIANI TRI PAVESE02:40:0916:56:18.9500:46:16
670778PELLIGRAGIOVANNI1969M247 ANNO DOMINI02:40:2116:56:30.8500:46:28
6711023CONCESADANIELE1973M1OTRI 1 COMO02:40:2117:00:29.0500:46:28
6721115PEREGODAVIDE1965M3MMTT02:40:2617:02:35.1000:46:32
6731054GUARESCHIANDREA1970M2DUEMMECORSE02:40:2817:00:35.1000:46:34
6741100DAL CENGIOMAURIZIO1967M3TRI.RN.MAROSTICA02:40:2917:00:36.2000:46:35
6751085MAZZOCCOENRICO1968M23K TEAM02:40:3017:00:37.5000:46:36
676352LONGOMARCO1968M2FUMANE TRIATHLON02:40:3216:54:44.0000:46:39
677713MOROSATOSTEFANO1967M3T.D. CREMONA02:40:4216:56:51.1500:46:48
678880STOPPIGLIADENIS1983S3TRIBU'02:40:4416:58:53.2000:46:50
6791029ASTOLFISTEFANO1972M2VTT02:41:1217:01:19.2500:47:18
6801040CANAIASIMONE1972M2TRI.RN.MAROSTICA02:41:1217:01:19.2500:47:18
681770AZZOLINIALBERTO1969M233 TT ASD02:41:1316:57:22.8500:47:20
682668GROLLAFEDERICO1970M2VERONA TRIATHLON02:41:2316:57:32.9000:47:30
6831015PIAZZAALBERTO1973M1NLF02:41:3717:01:44.5000:47:43
6841122MALAGOLIMARCO1964M3OTRI 1 COMO02:41:3717:03:46.7000:47:44
685731RICCHIUTOMAURO1971M2VERONA TRIATHLON02:41:3816:57:47.7500:47:45
686978MAURIENRICO1975M1DA PAURA02:41:4117:01:48.7500:47:48
687697PROLIVASCO MARIO1965M3OTRI 1 COMO02:41:4616:57:55.5000:47:52
688700CASTELLIANDREA1972M2VERONA TRIATHLON02:41:4716:57:56.4000:47:53
689736FIORIOGIANLUCA1969M2VERONA TRIATHLON02:41:5016:57:59.9000:47:57
6901197PEVERELLILORIS1972M2TESSERAMENTO GIORNALIERO02:41:5017:03:59.9500:47:57
6911006SCALETTAMARCELLO1974M1EUROPA SSD02:41:5717:02:05.0000:48:04
692666MAPELLILUCA1980S4APD ANDREANA SACRA F02:41:5816:58:07.3500:48:04
6931084LAURENTIGILBERTO1968M2A.S.D. TORINO TRIATH02:41:5817:02:05.5000:48:04
6941042BENEDINIMASSIMO1971M2CANOTRIATHLON02:42:0017:02:07.3000:48:06
695783NAVAANDREA1969M2GRUPPO ETHOS RUNNING02:42:0116:58:10.7000:48:08
696658MAGGIONIRICCARDO1985S3SPARTACUS TRILECCO02:42:1016:58:20.0500:48:17
697740TOLUEMANUELE1974M1MODENA TRIATHLON02:42:1316:58:22.8500:48:20
698694TAVELLAJURI1976M1OLIMPIC TRIATHLON02:42:1416:58:23.6000:48:20
699793TREMEAFLAVIO1962M4VALBOSSA TRIATHLON02:42:2117:00:30.1500:48:27
700746FIERROLUIGI1966M3EROI DEL PIAVE02:42:2216:58:31.6000:48:28
7011140STRAMARESERGIO1960M4A302:42:2617:04:35.8500:48:33
7021002MARCINNO'PAOLO1974M1PROPATRIA MILANO02:42:3017:02:37.5000:48:36
703709GATTIPAOLO1965M3CONERO WELLNESS02:42:3216:58:41.1000:48:38
7041055CALCATERRAGIUSEPPE1970M2ASD TEAM HIBISCUS02:42:3417:02:41.7000:48:41
705748TRETTEREGON1970M2CUS TRENTO CTT02:42:3516:58:44.7000:48:42
706644SACCARDIALBERTO1969M2TRAGUARDO VOLANTE02:42:3716:58:46.2500:48:43
707800RADICIGIANANTONIO1956M5ASD CNM TRIATHLON02:42:3817:00:48.0000:48:45
7081109MISTO'PIETRO1965M3OTRI 1 COMO02:42:3917:02:46.7000:48:46
7091120BRENACARLO1964M3FRIESIAN TEAM02:42:4817:04:57.4000:48:54
7101069GUSMINIWALTER ROBERTO1969M2MMTT02:42:4917:02:56.6000:48:55
711712TRANFUGAPIERLUIGI1967M3VERONA TRIATHLON02:42:5916:59:08.8500:49:06
7121001POLICRISTIAN1974M1VERONA TRIATHLON02:43:0717:03:14.5500:49:13
713724SIGNORELLIGIORGIO1971M2TRIATHLON BERGAMO02:43:0716:59:16.9500:49:14
7141126PULAPIER ANTONIO1964M3TRAGUARDO VOLANTE02:43:0917:05:18.1000:49:15
7151184ZAMPIERIANDREA1975M1TESSERAMENTO GIORNALIERO02:43:1617:05:25.1500:49:22
7161206MOTTAMAURIZIO1967M3TESSERAMENTO GIORNALIERO02:43:1817:05:27.1000:49:24
7171165GIOMBINILUCA1981S4TESSERAMENTO GIORNALIERO02:43:1817:05:27.3500:49:24
718679ULIVIALBERTO1968M2VALBOSSA TRIATHLON02:43:2616:59:35.8500:49:33
719663NICOLAZZIRAFFAELE1977M1SARONNO TRIATHLON02:43:3316:59:42.8500:49:40
7201094SPOTTILEONARDO1968M2S.S.D. SCHIANTARELLI02:43:3417:03:41.7000:49:41
721999BONETTIEROS1974M1VERONA TRIATHLON02:43:3817:03:45.6500:49:44
722422CALABRESEVITO1973M1OTRI 1 COMO02:43:4416:57:55.2000:49:50
723681CIMIANOMASSIMO1974M1A.S. VIRTUS02:43:4416:59:53.9500:49:51
7241107BADAPAOLO1965M3TRI TEAM BRIANZA02:43:4917:03:56.7500:49:56
725753BERLENDISDIEGO1977M1PESCHIERA TRI02:43:5117:00:00.3000:49:57
726879FANTONIMARCO RENATO1983S3BUSTO ARSIZIO A.R.C.02:43:5417:02:03.5500:50:00
727735CHRISTILLINGUSTAVO1972M2LC BRUGHERIO 202:43:5917:00:08.1000:50:05
728773SLONGODAVIDE1968M2TREVISO TRI02:44:0017:00:09.3000:50:06
729732PIANAGIANFRANCO1974M1EUROPA SSD02:44:0217:00:11.1000:50:08
730951FERRARODIEGO1976M1CASTELFRANCO TRIATHL02:44:0517:04:12.4500:50:11
731631DE GIORGIDANIELE1966M3TRITEAMPORDENONE02:44:0617:00:15.6000:50:12
732706GRANDIDENIS1970M2CUS FERRARA02:44:0917:00:18.5000:50:15
7331176SERENIFABIO1977M1TESSERAMENTO GIORNALIERO02:44:2217:06:31.6000:50:28
734915CARROZZOFRANCESCO1980S4PROPATRIA MILANO02:44:2817:02:37.4500:50:34
735776BELLIALBERTO1965M3IRONBIELLA02:44:3217:00:42.0000:50:39
736397DELLA BELLAALESSANDRO1971M2A302:44:4016:58:51.1000:50:46
737769ARMELLONISTEFANO1966M3HAPPY RUNNER CLUB02:44:5517:01:04.1000:51:01
7381181GALIMBERTIMATTEO1976M1TESSERAMENTO GIORNALIERO02:44:5817:07:07.8500:51:05
7391098BARONIMARCELLO1967M3ASD CNM TRIATHLON02:45:0117:05:08.1000:51:07
740782GAVIOLIMASSIMO1975M1A.S.D. RHODIGIUM TEA02:45:0517:01:14.1000:51:11
741983D'AGOSTINOANTONIO1975M1ALTA PUSTERIA02:45:3217:05:39.1500:51:38
7421036BIANCHETTIGIACOMO1972M2FREEZONE02:45:3417:05:41.2000:51:40
743475CAPARCOALESSIO1973M1PESCHIERA TRI02:45:4917:00:00.2000:51:55
7441196BASCHIROTTOGIOVANNI1972M2TESSERAMENTO GIORNALIERO02:45:5417:08:04.0500:52:01
7451053GRECOTOMASO1971M2SPARTACUS TRILECCO02:46:0217:06:09.1000:52:08
746463GUGLIELMIFRANCO1966M3PROPATRIA MILANO02:46:2117:00:32.9000:52:28
747840DELLABIANCIAMATTIA1990S2ASD SPEZIA TRIATHLO02:46:2117:04:30.9500:52:28
7481081MUNETTIMARCO1968M2CUS PARMA ASD02:46:2117:06:29.0500:52:28
749887ALMEAHECTOR1982S4TEAM BIKE GUSSAGO AS02:46:2617:04:35.8500:52:33
7501194TOSCANIETTORE1972M2TESSERAMENTO GIORNALIERO02:46:3417:08:43.9500:52:41
7511090RESMINIENRICO GRAZIANO1968M2TP ACADEMY TEAM02:46:3617:06:43.9000:52:43
7521175COLLAMORENO1978S4TESSERAMENTO GIORNALIERO02:46:3817:08:47.4000:52:44
753642DE VIVOROBERTO1962M4TREVISO TRI02:46:3917:02:48.5000:52:45
754934GIROLACRISTIANO1978S4ROAD RUNNERS02:46:4217:04:52.0500:52:49
755435BERTOLIFRANCESCO1960M4K3 CREMONA02:46:4517:00:56.5500:52:51
7561106TANIGILBERTO1966M3RASCHIANI TRI PAVESE02:46:4817:06:55.7000:52:55
757814RUSALENPAOLO1965M3FUMANE TRIATHLON02:46:5117:05:00.6500:52:57
758883DEMARIASIMONE1983S3A.S.D. TORINO TRIATH02:46:5417:05:03.8500:53:01
759449FRIGOMIRKO1973M1VERONA TRIATHLON02:46:5617:01:07.7000:53:03
7601127FERRARIALESSANDRO1963M3EUROPA SSD02:46:5717:09:06.6500:53:03
761667DE FANISALESSANDRO1974M1PROPATRIA MILANO02:47:0817:03:18.0500:53:15
7621179DANDREAMARIO1976M1TESSERAMENTO GIORNALIERO02:47:0917:09:18.5000:53:15
7631016MARDEGANGIORGIO1973M1PROPATRIA MILANO02:47:2417:07:31.2000:53:30
7641171TORTORILUCA1979S4TESSERAMENTO GIORNALIERO02:47:3817:09:47.3000:53:44
765869LASTILLAFRANCESCO1984S3GRUPPO ETHOS RUNNING02:47:4417:05:53.1000:53:50
766749NEGRELLIALBERTO1968M2JCT VIGEVANO02:47:4617:03:55.3500:53:52
767747SUSTACLAUDIO1969M2TRIATHLON CREMONA ST02:47:4617:03:55.8500:53:53
7681051BATTISTONMATTEO1971M2TRYLOGY02:47:4617:07:54.0000:53:53
7691189TRAPLETTIROBERTO1973M1TESSERAMENTO GIORNALIERO02:47:5617:10:05.8000:54:03
770982PASCALELUIGI1975M1FORUM02:47:5717:08:04.5500:54:03
771956DI FRANCESCOANDREA1976M1THE HURRICANE S.S.D.02:47:5917:08:06.2000:54:05
7721150FAZZOLIFABIO1987S3TESSERAMENTO GIORNALIERO02:48:0717:10:16.2000:54:13
7731135GIANNINIMAURO1962M4ZONA CAMBIO02:48:1017:10:19.2500:54:16
774657MANFREDOTTIDAVIDE FRANCESCO1984S3PROPATRIA MILANO02:48:1117:04:20.5000:54:17
775950STRANOROBERTO1977M1MODENA TRIATHLON02:48:1517:06:24.8000:54:22
7761188DELFINIANDREA1974M1TESSERAMENTO GIORNALIERO02:48:2017:10:29.7500:54:27
777809CANEVARILUCA1978S4DE RAN CLAB02:48:2317:06:32.4500:54:29
778742RUFFONIMAURIZIO1955M5ZEROTRENTA TRIATHLON02:48:2317:04:33.0500:54:30
779785MILZANIFRANCESCO1974M1TEAM BIKE GUSSAGO AS02:48:2517:04:35.0500:54:32
7801088BOTTANIFRANCESCO1968M2VERDE PISELLO GROUP02:48:2717:08:34.2500:54:33
781817FRUETTIZIANO1977M1TRAGUARDO VOLANTE02:48:3417:02:45.3500:54:40
7821211SOLDATISERGIO1961M4TESSERAMENTO GIORNALIERO02:48:5017:10:59.2500:54:56
783659SCUDIEROSTEFANO1972M2THE HURRICANE S.S.D.02:48:5617:05:05.1000:55:02
7841000VENERONICARLO1974M1COOPERATORI02:49:0617:09:13.6500:55:12
785855SENNIFRANCESCO1986S3MODENA TRIATHLON02:49:0917:07:18.6500:55:15
786803FERRILUCA1965M3GALILEO TRIATHLON02:49:1117:07:20.6500:55:17
787752CARAMALLIMORENO1964M3T302:49:1217:05:21.2500:55:18
788794GARBERICESARE1958M4OXYGEN TRIATHLON02:49:1317:07:22.8000:55:20
789884FIORENTINIANDREA1982S4PESCHIERA TRI02:49:1617:07:25.7500:55:23
7901158ARPELLINOMATTEO1984S3TESSERAMENTO GIORNALIERO02:49:4017:11:50.0500:55:47
7911195GARBINOGIORGIO1972M2TESSERAMENTO GIORNALIERO02:49:4117:11:50.3500:55:47
792729FONTANELLIRICCARDO1966M3G.P. TRIATHLON02:49:4317:05:53.0500:55:50
793695FONTANAFLAVIO1986S3HAPPY RUNNER CLUB02:49:5817:06:07.9000:56:05
794789TOGNOTTIAUGUSTO1971M233 TT ASD02:50:0117:06:11.0500:56:08
7951078PARONIPAOLO1969M2PESCHIERA TRI02:50:1117:10:18.8000:56:18
7961071TELLMICHELE1969M2CSA GORIZIA02:50:1617:10:23.3500:56:22
797757BERTASIMAURO1962M4TRIATHLON CONCESIO02:50:2917:06:38.1500:56:35
798974GALLICLAUDIO1975M1K3 CREMONA02:50:3117:10:38.9000:56:38
7991192PEREZALEJANDRO1972M2ESTERO02:50:3417:12:43.9000:56:41
800768ROSSIPAOLO1951M6TREVISO TRI02:50:4317:06:53.0500:56:50
8011057CANTU'CRISTIANO1970M2ROAD RUNNERS02:51:0817:11:15.6000:57:14
802906FRIGERIODANIELE1980S4OTRI 1 COMO02:51:1017:09:19.1000:57:16
8031089DE NICOLAROBERTO1968M2MMTT02:51:1117:11:19.0000:57:18
8041141COLOMBOMATTEO1960M4PROPATRIA MILANO02:51:1417:13:23.6000:57:20
805766ALBANOLIVIO1974M1TEAM LADISPOLI TRIAT02:51:3617:07:45.8500:57:43
8061147IZZOARMANDO1990S2TESSERAMENTO GIORNALIERO02:51:4817:13:57.1500:57:54
807907BUCCIVITTORIO1980S4ASD CNM TRIATHLON02:51:4917:09:58.1000:57:55
808687CAPARINIDAVIDE CARLO1967M3MERAVIGLIE TRIATHLON02:52:0017:08:09.4500:58:06
8091099CHERUBINISTEFANO1967M3MB TRIATHLON02:52:0117:12:09.0500:58:08
810708PIZZEGHELLALUCA1965M3CUS VERONA02:52:1417:08:23.6500:58:20
8111091SILVAANDREA1968M2SPORT 6402:52:1417:12:21.7000:58:21
8121082GALBIATIRICCARDO1968M2MMTT02:52:2417:12:31.1500:58:30
8131190REIFERRICHARD1973M1TESSERAMENTO GIORNALIERO02:52:2717:14:36.4500:58:33
814920CREMONAMICHELE1980S4K3 CREMONA02:52:2917:10:38.8000:58:36
815795BEGHININICOLA1974M1VERONA TRIATHLON02:52:3317:10:42.9500:58:40
816802LA MARTINASANTO1971M2ATL. MDS PANARIAGROU02:52:3517:10:44.6000:58:41
817755MARGIOTTATONY1973M1SMR TRIATHLON02:52:3817:08:47.7500:58:45
818807ZANINIFABIO1960M4EUROPA SSD02:52:3917:10:48.5000:58:45
819810BAIARDIPIERO1964M3AIRONE TRIATHLON02:52:4117:10:50.6500:58:47
8201144ROTAMAURIZIO1957M5MMTT02:52:4417:14:53.7500:58:51
8211153REGONESIANDREA1987S3TESSERAMENTO GIORNALIERO02:52:5017:14:59.3500:58:56
822673FUSARIALBERTO1958M4OXYGEN TRIATHLON02:52:5017:08:59.4500:58:56
823798TERENZIANIPAOLO1967M3TRAGUARDO VOLANTE02:52:5717:11:06.2000:59:03
824804SACILOTTOGIANLUCA1967M3EROI DEL PIAVE02:52:5717:11:06.2500:59:03
8251062FACCINROBERTO1970M2IN SPORT SRL SSD02:53:1417:13:21.4000:59:20
8261019MAZZONIFRANCESCO1973M1CANOTRIATHLON02:53:2117:13:28.6000:59:27
8271205ZANFRINISERGIO1968M2TESSERAMENTO GIORNALIERO02:53:2317:15:32.9500:59:30
8281169FACCOMARCO1979S4TESSERAMENTO GIORNALIERO02:53:5317:16:02.6500:59:59
8291138GIULIANIMASSIMO1961M4CONERO WELLNESS02:53:5817:16:07.1001:00:04
8301004PAVIAGIANLUCA1974M1FRIESIAN TEAM02:54:1617:14:23.3001:00:22
8311075REGGIANICARLO1969M2MB TRIATHLON02:54:3617:14:43.9501:00:43
8321112ANGIUONIROBERTO1965M3TRIATHLON CREMONA ST02:54:3817:16:47.1501:00:44
833812RESCINITIMARCO1963M3OTRI 1 COMO02:54:3817:12:47.9501:00:45
834726VENEZIANIFABRIZIO1962M4CANOTRIATHLON02:55:3117:11:40.6501:01:37
8351128GIOVENALIANDREA1963M3PPRTEAM02:55:3817:17:47.4501:01:44
8361035FRIGOGIUSEPPE1972M2VERONA TRIATHLON02:56:0317:16:10.3501:02:09
837865TARTINIMATTEO1984S3EUROPA SSD02:56:0317:14:12.9001:02:10
8381182CADEIANDREA1976M1TESSERAMENTO GIORNALIERO02:56:0817:18:17.3001:02:14
839754BELOTTIENRICO GIULIANO1960M4FREEZONE02:56:0817:12:17.8001:02:15
840781ROSSINIPIERLUIGI1960M4CUS BRESCIA02:56:1417:12:23.5501:02:20
8411037SCAVINOVALERIO1972M2AIRONE TRIATHLON02:56:2017:16:27.9001:02:27
842784BARZAGHIANDREA1972M2TRI TEAM BRIANZA02:56:2417:12:33.7001:02:31
843791VALSECCHIMASSIMO GIOVANNI1971M2SARONNO TRIATHLON02:56:2917:14:38.1001:02:35
8441159FONTIJNRONALD1983S3ESTERO02:57:2217:19:31.2501:03:28
845665GAIGAMARCO1971M2VERONA TRIATHLON02:57:4317:13:52.3001:03:49
846961MARCHESINI REGGIANILEONARDO1976M1SPARTANS BOLOGNA02:57:4917:17:56.8501:03:56
847787FORTUGNODIEGO1974M1DE RAN CLAB02:57:5417:14:03.6001:04:00
848759MOROANDREA CARLO1968M2HAPPY RUNNER CLUB02:57:5417:14:03.6501:04:00
849813PAVIAFEDERICO1993S1MERAVIGLIE TRIATHLON02:58:0917:16:18.8001:04:16
850910BERTOLAZZILUIGI1980S4CY LASER TRI SCHIO02:58:1717:16:26.4001:04:23
851874FUSINIMARCO1983S3CSS TRIATHLON VERONA02:58:3417:16:43.4001:04:40
8521025VIANDAVIDE1973M1REACTION02:58:3917:18:46.2501:04:45
853811DALLA VIAMAURIZIO1960M4CY LASER TRI SCHIO02:58:5017:16:59.5501:04:56
854678LOCATELLIMATTEO1969M2ASD CNM TRIATHLON02:59:1317:15:22.2501:05:19
855923VENTURIERNESTO1979S4VERONA TRIATHLON02:59:1417:17:23.3001:05:20
8561152AMARANDEIIULIAN1987S3TESSERAMENTO GIORNALIERO02:59:2017:21:29.5001:05:26
8571193TARTAGLIONEANTONIO1972M2TESSERAMENTO GIORNALIERO02:59:3617:21:45.2501:05:42
858947BARBIMATTEO1977M1CY LASER TRI SCHIO02:59:4517:17:54.5001:05:51
8591014CAEMSTEFANO1973M1MMTT02:59:5617:20:03.2501:06:02
860881MAZZOLINIMARVIN1983S3VTT03:00:0117:18:10.8001:06:08
8611220MODENAMARTINO1971M2VERONA TRIATHLON03:00:0817:22:17.6001:06:14
8621130MATTIELLOSTEFANO1963M3PHISIO SPORT LAB TRI03:00:0817:22:17.7501:06:15
8631204GALLINADAVIDE1968M2TESSERAMENTO GIORNALIERO03:00:1317:22:22.2001:06:19
864818SOLDA'FILIPPO1979S4CUSIOCUP03:00:2017:18:30.0001:06:27
8651185KAPPLERTOM1975M1ESTERO03:00:4417:22:53.1001:06:50
8661066MAFFEISMARCO RAFFAELE1969M2ASD CNM TRIATHLON03:00:4817:20:55.1501:06:54
8671134CAPPELLETTISTEFANO1962M4CUS TRENTO CTT03:01:0117:23:10.3001:07:07
8681139VILLAFABIO STEFANO1961M4TRI TEAM BRIANZA03:01:4417:23:53.4001:07:50
8691086LUSIGNANISIMONE1968M2PESCHIERA TRI03:01:5317:22:00.1001:07:59
870815DURANTESTEFANO1965M3MMTT03:01:5417:20:03.1501:08:00
8711093RANZATOLUITI1968M2CUS TRENTO CTT03:02:3417:22:41.7001:08:41
872669BELLONIPIETRO ANTONIO1964M3MMTT03:03:5417:20:03.2501:10:00
8731143POLIROSARIO1958M4HAPPY RUNNER CLUB03:05:3017:27:39.9001:11:37
8741161MORANIANDREA1982S4TESSERAMENTO GIORNALIERO03:05:5617:28:05.6001:12:02
875819MARCHESIALBERTO1943M7DE RAN CLAB03:06:0717:24:16.4001:12:13
8761068MONTECROCIALBERTO1969M2TRITALY ASD03:06:2617:26:33.9001:12:33
877805ZANOTTIJACOPO1977M1EUROPA SSD03:07:0217:25:11.1001:13:08
8781097DELL'ORTOVITTORIO1967M3VTT03:07:0617:27:13.3001:13:12
8791095NEBULONIRODOLFO1968M2BUSTO ARSIZIO A.R.C.03:07:1017:27:17.1001:13:16
8801162CAPPELLERICHRISTIAN1981S4TESSERAMENTO GIORNALIERO03:07:2817:29:37.1501:13:34
8811174MORETTIFABRIZIO1978S4TESSERAMENTO GIORNALIERO03:07:2817:29:37.6001:13:34
8821108GIACOMINIROBERTO1965M3CALYPSO TRIATHLON03:07:5317:28:00.6501:13:59
8831214ROSSETTORENZO1952M6TESSERAMENTO GIORNALIERO03:08:5817:31:07.4001:15:04
884801IURCOTTAPAOLO1969M2ROAD RUNNERS03:09:3917:27:48.9501:15:46
8851033RUSCIOGIOVANNI1972M2SGM TRIATHLON03:09:4217:29:49.4001:15:48
886931GERVASONIMATTEO1978S4DE RAN CLAB03:10:0617:28:15.3001:16:12
887997SCIUTOENRICO1974M1DE RAN CLAB03:10:0717:30:14.3501:16:13
888990POZZIFRANCESCO1975M1DA PAURA03:10:4217:30:49.7001:16:49
889893LEGRAMANTICLAUDIO1982S4SPORT MANAGEMENT03:10:4617:28:55.7001:16:53
8901027BETTONISTEFANO1973M1EUROPA SSD03:11:1917:31:26.9001:17:26
891939MUNARINKOCIS1978S4TREVISO TRI03:11:2917:29:38.6501:17:35
892977CAMICIOLIDAVIDE1975M1TRIATHLON CREMONA ST03:11:4917:31:56.1501:17:55
893779NATALIGIAN FRANCO1958M4A.S.D. RHODIGIUM TEA03:11:5317:28:02.1501:17:59
8941142POZZIFEDERICO1958M4TEAM BIKE GUSSAGO AS03:13:0417:35:14.0501:19:11
8951201AZZETTIVLADIMIRO1969M2TESSERAMENTO GIORNALIERO03:13:1617:35:25.9001:19:23
896436BIGHELLIMICHELE1981S4PESCHIERA TRI03:13:2617:27:37.7001:19:33
897806LOTTIEZIO1955M5VERONA TRIATHLON03:13:3217:31:41.9501:19:39
898928VALERIOGABRIELE1978S4SARONNO TRIATHLON03:14:0617:32:15.7001:20:13
8991118SPAGNOLIALDO1964M3DDS03:14:3317:36:42.2001:20:39
9001124LOVATOANDREA ALBERTO1964M3HAPPY RUNNER CLUB03:14:3317:36:42.5001:20:39
901820BERTASSIMASSIMO1976M1RASCHIANI TRI PAVESE03:14:3817:32:47.8501:20:45
9021056LUCHESCHISTANISLAO1970M2ASD CNM TRIATHLON03:16:2117:36:28.9001:22:28
9031116PANIZZUTANDREA1965M3PROPATRIA MILANO03:21:4717:43:56.4001:27:53
9041073DONZELLIIVAN MARCO1969M2SARONNO TRIATHLON03:22:1317:42:20.5001:28:19
9051024BRAMBILLASIMONE1973M1VTT03:30:0317:50:10.3501:36:09
9061146CARENZIONATALE1956M5RASCHIANI TRI PAVESE03:32:2417:54:33.5001:38:30
FORNITORI UFFICIALI >>
ISTITUZIONI >>
MEDIA PARTNERS >>